<?xml version="1.0" encoding="UTF-8" standalone="no" ?>
<gpx xmlns="http://www.topografix.com/GPX/1/1" xmlns:xsi="http://www.w3.org/2001/XMLSchema-instance" xsi:schemaLocation="http://www.topografix.com/GPX/1/1 http://www.topografix.com/GPX/1/1/gpx.xsd" version="1.1" creator="VisuGPX - https://www.visugpx.com">
  <metadata>
    <name>Vacances 2021</name>
  </metadata>
  <trk>
    <name><![CDATA[Journal actif: 2021-08-04 17:07]]></name>
    <trkseg>
      <trkpt lat="46.32936" lon="2.58142">
        <ele>229.89</ele>
        <time>2021-08-04T19:07:47Z</time>
      </trkpt>
      <trkpt lat="46.32987" lon="2.57999">
        <ele>231.81</ele>
        <time>2021-08-04T19:08:00Z</time>
      </trkpt>
      <trkpt lat="46.3304" lon="2.57818">
        <ele>235.66</ele>
        <time>2021-08-04T19:08:15Z</time>
      </trkpt>
      <trkpt lat="46.33095" lon="2.57732">
        <ele>237.1</ele>
        <time>2021-08-04T19:08:23Z</time>
      </trkpt>
      <trkpt lat="46.33139" lon="2.57684">
        <ele>237.1</ele>
        <time>2021-08-04T19:08:30Z</time>
      </trkpt>
      <trkpt lat="46.33141" lon="2.57682">
        <ele>236.62</ele>
        <time>2021-08-04T19:08:42Z</time>
      </trkpt>
      <trkpt lat="46.33156" lon="2.57668">
        <ele>236.14</ele>
        <time>2021-08-04T19:08:55Z</time>
      </trkpt>
      <trkpt lat="46.33232" lon="2.57598">
        <ele>230.85</ele>
        <time>2021-08-04T19:09:03Z</time>
      </trkpt>
      <trkpt lat="46.33379" lon="2.57459">
        <ele>221.72</ele>
        <time>2021-08-04T19:09:15Z</time>
      </trkpt>
      <trkpt lat="46.33387" lon="2.57452">
        <ele>220.76</ele>
        <time>2021-08-04T19:09:16Z</time>
      </trkpt>
      <trkpt lat="46.33396" lon="2.57445">
        <ele>221.24</ele>
        <time>2021-08-04T19:09:17Z</time>
      </trkpt>
      <trkpt lat="46.33405" lon="2.57441">
        <ele>221.72</ele>
        <time>2021-08-04T19:09:18Z</time>
      </trkpt>
      <trkpt lat="46.33417" lon="2.57436">
        <ele>220.76</ele>
        <time>2021-08-04T19:09:20Z</time>
      </trkpt>
      <trkpt lat="46.3343" lon="2.57434">
        <ele>220.76</ele>
        <time>2021-08-04T19:09:21Z</time>
      </trkpt>
      <trkpt lat="46.33438" lon="2.57433">
        <ele>220.76</ele>
        <time>2021-08-04T19:09:22Z</time>
      </trkpt>
      <trkpt lat="46.33447" lon="2.57433">
        <ele>220.76</ele>
        <time>2021-08-04T19:09:23Z</time>
      </trkpt>
      <trkpt lat="46.33457" lon="2.57434">
        <ele>220.28</ele>
        <time>2021-08-04T19:09:24Z</time>
      </trkpt>
      <trkpt lat="46.33468" lon="2.57435">
        <ele>220.28</ele>
        <time>2021-08-04T19:09:25Z</time>
      </trkpt>
      <trkpt lat="46.3348" lon="2.57436">
        <ele>219.8</ele>
        <time>2021-08-04T19:09:26Z</time>
      </trkpt>
      <trkpt lat="46.33614" lon="2.57447">
        <ele>216.43</ele>
        <time>2021-08-04T19:09:36Z</time>
      </trkpt>
      <trkpt lat="46.33665" lon="2.57447">
        <ele>215.95</ele>
        <time>2021-08-04T19:09:42Z</time>
      </trkpt>
      <trkpt lat="46.33677" lon="2.57447">
        <ele>215.95</ele>
        <time>2021-08-04T19:09:48Z</time>
      </trkpt>
      <trkpt lat="46.33741" lon="2.57446">
        <ele>215.95</ele>
        <time>2021-08-04T19:09:57Z</time>
      </trkpt>
      <trkpt lat="46.33793" lon="2.57444">
        <ele>216.91</ele>
        <time>2021-08-04T19:10:07Z</time>
      </trkpt>
      <trkpt lat="46.33793" lon="2.57444">
        <ele>216.91</ele>
        <time>2021-08-04T19:10:28Z</time>
      </trkpt>
      <trkpt lat="46.33814" lon="2.57443">
        <ele>217.4</ele>
        <time>2021-08-04T19:11:20Z</time>
      </trkpt>
      <trkpt lat="46.33819" lon="2.57443">
        <ele>217.4</ele>
        <time>2021-08-04T19:11:21Z</time>
      </trkpt>
      <trkpt lat="46.33831" lon="2.57441">
        <ele>217.4</ele>
        <time>2021-08-04T19:11:22Z</time>
      </trkpt>
      <trkpt lat="46.33831" lon="2.57441">
        <ele>217.4</ele>
        <time>2021-08-04T19:11:23Z</time>
      </trkpt>
      <trkpt lat="46.33836" lon="2.57441">
        <ele>217.4</ele>
        <time>2021-08-04T19:11:24Z</time>
      </trkpt>
      <trkpt lat="46.33838" lon="2.57428">
        <ele>217.88</ele>
        <time>2021-08-04T19:11:25Z</time>
      </trkpt>
      <trkpt lat="46.33837" lon="2.57419">
        <ele>217.88</ele>
        <time>2021-08-04T19:11:26Z</time>
      </trkpt>
      <trkpt lat="46.33837" lon="2.57408">
        <ele>217.88</ele>
        <time>2021-08-04T19:11:27Z</time>
      </trkpt>
      <trkpt lat="46.33836" lon="2.57395">
        <ele>217.88</ele>
        <time>2021-08-04T19:11:28Z</time>
      </trkpt>
      <trkpt lat="46.33829" lon="2.5723">
        <ele>217.4</ele>
        <time>2021-08-04T19:11:37Z</time>
      </trkpt>
      <trkpt lat="46.33817" lon="2.56961">
        <ele>226.05</ele>
        <time>2021-08-04T19:11:51Z</time>
      </trkpt>
      <trkpt lat="46.33814" lon="2.569">
        <ele>227.97</ele>
        <time>2021-08-04T19:11:55Z</time>
      </trkpt>
      <trkpt lat="46.33814" lon="2.56887">
        <ele>228.93</ele>
        <time>2021-08-04T19:11:56Z</time>
      </trkpt>
      <trkpt lat="46.33826" lon="2.56866">
        <ele>229.89</ele>
        <time>2021-08-04T19:11:58Z</time>
      </trkpt>
      <trkpt lat="46.33827" lon="2.56859">
        <ele>230.37</ele>
        <time>2021-08-04T19:11:59Z</time>
      </trkpt>
      <trkpt lat="46.33822" lon="2.56846">
        <ele>230.85</ele>
        <time>2021-08-04T19:12:00Z</time>
      </trkpt>
      <trkpt lat="46.33821" lon="2.56844">
        <ele>230.85</ele>
        <time>2021-08-04T19:12:01Z</time>
      </trkpt>
      <trkpt lat="46.33812" lon="2.56824">
        <ele>230.85</ele>
        <time>2021-08-04T19:12:02Z</time>
      </trkpt>
      <trkpt lat="46.3381" lon="2.56809">
        <ele>230.85</ele>
        <time>2021-08-04T19:12:03Z</time>
      </trkpt>
      <trkpt lat="46.3381" lon="2.56794">
        <ele>231.33</ele>
        <time>2021-08-04T19:12:04Z</time>
      </trkpt>
      <trkpt lat="46.3381" lon="2.56779">
        <ele>231.81</ele>
        <time>2021-08-04T19:12:05Z</time>
      </trkpt>
      <trkpt lat="46.338" lon="2.56536">
        <ele>240.95</ele>
        <time>2021-08-04T19:12:19Z</time>
      </trkpt>
      <trkpt lat="46.33791" lon="2.56299">
        <ele>244.79</ele>
        <time>2021-08-04T19:12:32Z</time>
      </trkpt>
      <trkpt lat="46.33789" lon="2.56256">
        <ele>245.27</ele>
        <time>2021-08-04T19:12:37Z</time>
      </trkpt>
      <trkpt lat="46.33795" lon="2.56234">
        <ele>246.23</ele>
        <time>2021-08-04T19:12:42Z</time>
      </trkpt>
      <trkpt lat="46.33795" lon="2.56226">
        <ele>246.23</ele>
        <time>2021-08-04T19:12:43Z</time>
      </trkpt>
      <trkpt lat="46.33795" lon="2.56224">
        <ele>246.72</ele>
        <time>2021-08-04T19:12:44Z</time>
      </trkpt>
      <trkpt lat="46.33784" lon="2.562">
        <ele>246.72</ele>
        <time>2021-08-04T19:12:45Z</time>
      </trkpt>
      <trkpt lat="46.33784" lon="2.562">
        <ele>246.72</ele>
        <time>2021-08-04T19:12:46Z</time>
      </trkpt>
      <trkpt lat="46.33784" lon="2.5619">
        <ele>247.2</ele>
        <time>2021-08-04T19:12:47Z</time>
      </trkpt>
      <trkpt lat="46.33781" lon="2.56045">
        <ele>250.08</ele>
        <time>2021-08-04T19:12:56Z</time>
      </trkpt>
      <trkpt lat="46.33766" lon="2.55718">
        <ele>261.14</ele>
        <time>2021-08-04T19:13:11Z</time>
      </trkpt>
      <trkpt lat="46.3375" lon="2.55299">
        <ele>274.59</ele>
        <time>2021-08-04T19:13:28Z</time>
      </trkpt>
      <trkpt lat="46.33713" lon="2.54933">
        <ele>284.21</ele>
        <time>2021-08-04T19:13:41Z</time>
      </trkpt>
      <trkpt lat="46.33658" lon="2.54721">
        <ele>293.34</ele>
        <time>2021-08-04T19:13:51Z</time>
      </trkpt>
      <trkpt lat="46.33547" lon="2.54442">
        <ele>302.47</ele>
        <time>2021-08-04T19:14:03Z</time>
      </trkpt>
      <trkpt lat="46.33462" lon="2.54226">
        <ele>306.32</ele>
        <time>2021-08-04T19:14:14Z</time>
      </trkpt>
      <trkpt lat="46.33459" lon="2.54209">
        <ele>306.32</ele>
        <time>2021-08-04T19:14:15Z</time>
      </trkpt>
      <trkpt lat="46.3346" lon="2.54176">
        <ele>305.36</ele>
        <time>2021-08-04T19:14:16Z</time>
      </trkpt>
      <trkpt lat="46.3346" lon="2.54176">
        <ele>304.88</ele>
        <time>2021-08-04T19:14:17Z</time>
      </trkpt>
      <trkpt lat="46.33464" lon="2.54159">
        <ele>304.88</ele>
        <time>2021-08-04T19:14:18Z</time>
      </trkpt>
      <trkpt lat="46.33468" lon="2.54144">
        <ele>304.39</ele>
        <time>2021-08-04T19:14:19Z</time>
      </trkpt>
      <trkpt lat="46.33472" lon="2.5413">
        <ele>303.43</ele>
        <time>2021-08-04T19:14:20Z</time>
      </trkpt>
      <trkpt lat="46.33476" lon="2.54117">
        <ele>303.43</ele>
        <time>2021-08-04T19:14:21Z</time>
      </trkpt>
      <trkpt lat="46.3348" lon="2.54105">
        <ele>303.43</ele>
        <time>2021-08-04T19:14:22Z</time>
      </trkpt>
      <trkpt lat="46.33499" lon="2.54094">
        <ele>302.95</ele>
        <time>2021-08-04T19:14:23Z</time>
      </trkpt>
      <trkpt lat="46.33499" lon="2.54094">
        <ele>302.95</ele>
        <time>2021-08-04T19:14:24Z</time>
      </trkpt>
      <trkpt lat="46.335" lon="2.54076">
        <ele>303.43</ele>
        <time>2021-08-04T19:14:25Z</time>
      </trkpt>
      <trkpt lat="46.33499" lon="2.54072">
        <ele>303.43</ele>
        <time>2021-08-04T19:14:26Z</time>
      </trkpt>
      <trkpt lat="46.33487" lon="2.54054">
        <ele>303.43</ele>
        <time>2021-08-04T19:14:27Z</time>
      </trkpt>
      <trkpt lat="46.33488" lon="2.54028">
        <ele>303.43</ele>
        <time>2021-08-04T19:14:28Z</time>
      </trkpt>
      <trkpt lat="46.33488" lon="2.54028">
        <ele>302.47</ele>
        <time>2021-08-04T19:14:29Z</time>
      </trkpt>
      <trkpt lat="46.33488" lon="2.54012">
        <ele>302.95</ele>
        <time>2021-08-04T19:14:30Z</time>
      </trkpt>
      <trkpt lat="46.33492" lon="2.53888">
        <ele>300.55</ele>
        <time>2021-08-04T19:14:36Z</time>
      </trkpt>
      <trkpt lat="46.33488" lon="2.53866">
        <ele>300.07</ele>
        <time>2021-08-04T19:14:37Z</time>
      </trkpt>
      <trkpt lat="46.33484" lon="2.53842">
        <ele>300.07</ele>
        <time>2021-08-04T19:14:38Z</time>
      </trkpt>
      <trkpt lat="46.33478" lon="2.5382">
        <ele>300.07</ele>
        <time>2021-08-04T19:14:39Z</time>
      </trkpt>
      <trkpt lat="46.33471" lon="2.53797">
        <ele>300.07</ele>
        <time>2021-08-04T19:14:40Z</time>
      </trkpt>
      <trkpt lat="46.33461" lon="2.53778">
        <ele>301.03</ele>
        <time>2021-08-04T19:14:41Z</time>
      </trkpt>
      <trkpt lat="46.3345" lon="2.53759">
        <ele>301.99</ele>
        <time>2021-08-04T19:14:42Z</time>
      </trkpt>
      <trkpt lat="46.33439" lon="2.5374">
        <ele>302.95</ele>
        <time>2021-08-04T19:14:43Z</time>
      </trkpt>
      <trkpt lat="46.33314" lon="2.53538">
        <ele>311.12</ele>
        <time>2021-08-04T19:14:55Z</time>
      </trkpt>
      <trkpt lat="46.33286" lon="2.53494">
        <ele>310.64</ele>
        <time>2021-08-04T19:14:59Z</time>
      </trkpt>
      <trkpt lat="46.33282" lon="2.53487">
        <ele>310.64</ele>
        <time>2021-08-04T19:15:00Z</time>
      </trkpt>
      <trkpt lat="46.33278" lon="2.5348">
        <ele>310.64</ele>
        <time>2021-08-04T19:15:01Z</time>
      </trkpt>
      <trkpt lat="46.33282" lon="2.53466">
        <ele>310.16</ele>
        <time>2021-08-04T19:15:02Z</time>
      </trkpt>
      <trkpt lat="46.33286" lon="2.53459">
        <ele>309.68</ele>
        <time>2021-08-04T19:15:03Z</time>
      </trkpt>
      <trkpt lat="46.33289" lon="2.53454">
        <ele>309.68</ele>
        <time>2021-08-04T19:15:04Z</time>
      </trkpt>
      <trkpt lat="46.33289" lon="2.53454">
        <ele>309.68</ele>
        <time>2021-08-04T19:15:05Z</time>
      </trkpt>
      <trkpt lat="46.33304" lon="2.53433">
        <ele>308.24</ele>
        <time>2021-08-04T19:15:06Z</time>
      </trkpt>
      <trkpt lat="46.33315" lon="2.53435">
        <ele>306.8</ele>
        <time>2021-08-04T19:15:07Z</time>
      </trkpt>
      <trkpt lat="46.33327" lon="2.53438">
        <ele>305.84</ele>
        <time>2021-08-04T19:15:08Z</time>
      </trkpt>
      <trkpt lat="46.33337" lon="2.53447">
        <ele>305.36</ele>
        <time>2021-08-04T19:15:09Z</time>
      </trkpt>
      <trkpt lat="46.33356" lon="2.53467">
        <ele>303.91</ele>
        <time>2021-08-04T19:15:10Z</time>
      </trkpt>
      <trkpt lat="46.33382" lon="2.53502">
        <ele>299.59</ele>
        <time>2021-08-04T19:15:14Z</time>
      </trkpt>
      <trkpt lat="46.33388" lon="2.53516">
        <ele>300.07</ele>
        <time>2021-08-04T19:15:15Z</time>
      </trkpt>
      <trkpt lat="46.33394" lon="2.53529">
        <ele>299.59</ele>
        <time>2021-08-04T19:15:16Z</time>
      </trkpt>
      <trkpt lat="46.33395" lon="2.53548">
        <ele>299.11</ele>
        <time>2021-08-04T19:15:17Z</time>
      </trkpt>
      <trkpt lat="46.33396" lon="2.53563">
        <ele>298.63</ele>
        <time>2021-08-04T19:15:18Z</time>
      </trkpt>
      <trkpt lat="46.33392" lon="2.53579">
        <ele>298.63</ele>
        <time>2021-08-04T19:15:19Z</time>
      </trkpt>
      <trkpt lat="46.33387" lon="2.53595">
        <ele>298.63</ele>
        <time>2021-08-04T19:15:20Z</time>
      </trkpt>
      <trkpt lat="46.33367" lon="2.53617">
        <ele>297.18</ele>
        <time>2021-08-04T19:15:21Z</time>
      </trkpt>
      <trkpt lat="46.33355" lon="2.53625">
        <ele>297.67</ele>
        <time>2021-08-04T19:15:22Z</time>
      </trkpt>
      <trkpt lat="46.3334" lon="2.53632">
        <ele>297.67</ele>
        <time>2021-08-04T19:15:23Z</time>
      </trkpt>
      <trkpt lat="46.3334" lon="2.53632">
        <ele>297.18</ele>
        <time>2021-08-04T19:15:24Z</time>
      </trkpt>
      <trkpt lat="46.33179" lon="2.53672">
        <ele>299.11</ele>
        <time>2021-08-04T19:15:33Z</time>
      </trkpt>
      <trkpt lat="46.33005" lon="2.53656">
        <ele>300.55</ele>
        <time>2021-08-04T19:15:41Z</time>
      </trkpt>
      <trkpt lat="46.3284" lon="2.53583">
        <ele>301.99</ele>
        <time>2021-08-04T19:15:48Z</time>
      </trkpt>
      <trkpt lat="46.32685" lon="2.53444">
        <ele>307.28</ele>
        <time>2021-08-04T19:15:55Z</time>
      </trkpt>
      <trkpt lat="46.32564" lon="2.5326">
        <ele>313.53</ele>
        <time>2021-08-04T19:16:02Z</time>
      </trkpt>
      <trkpt lat="46.32442" lon="2.52954">
        <ele>322.18</ele>
        <time>2021-08-04T19:16:11Z</time>
      </trkpt>
      <trkpt lat="46.32249" lon="2.52392">
        <ele>338.04</ele>
        <time>2021-08-04T19:16:30Z</time>
      </trkpt>
      <trkpt lat="46.32125" lon="2.51938">
        <ele>351.02</ele>
        <time>2021-08-04T19:16:44Z</time>
      </trkpt>
      <trkpt lat="46.31881" lon="2.50758">
        <ele>380.34</ele>
        <time>2021-08-04T19:17:19Z</time>
      </trkpt>
      <trkpt lat="46.31769" lon="2.50209">
        <ele>389.47</ele>
        <time>2021-08-04T19:17:35Z</time>
      </trkpt>
      <trkpt lat="46.31714" lon="2.49844">
        <ele>388.51</ele>
        <time>2021-08-04T19:17:45Z</time>
      </trkpt>
      <trkpt lat="46.31668" lon="2.49076">
        <ele>389.47</ele>
        <time>2021-08-04T19:18:05Z</time>
      </trkpt>
      <trkpt lat="46.31606" lon="2.48216">
        <ele>399.08</ele>
        <time>2021-08-04T19:18:28Z</time>
      </trkpt>
      <trkpt lat="46.31512" lon="2.47747">
        <ele>403.41</ele>
        <time>2021-08-04T19:18:41Z</time>
      </trkpt>
      <trkpt lat="46.31387" lon="2.47335">
        <ele>406.29</ele>
        <time>2021-08-04T19:18:53Z</time>
      </trkpt>
      <trkpt lat="46.31234" lon="2.46958">
        <ele>418.31</ele>
        <time>2021-08-04T19:19:05Z</time>
      </trkpt>
      <trkpt lat="46.31059" lon="2.46505">
        <ele>431.29</ele>
        <time>2021-08-04T19:19:20Z</time>
      </trkpt>
      <trkpt lat="46.30918" lon="2.46026">
        <ele>444.27</ele>
        <time>2021-08-04T19:19:36Z</time>
      </trkpt>
      <trkpt lat="46.30781" lon="2.45563">
        <ele>447.63</ele>
        <time>2021-08-04T19:19:51Z</time>
      </trkpt>
      <trkpt lat="46.30569" lon="2.44845">
        <ele>435.13</ele>
        <time>2021-08-04T19:20:12Z</time>
      </trkpt>
      <trkpt lat="46.30434" lon="2.4445">
        <ele>446.67</ele>
        <time>2021-08-04T19:20:24Z</time>
      </trkpt>
      <trkpt lat="46.30271" lon="2.44114">
        <ele>459.65</ele>
        <time>2021-08-04T19:20:36Z</time>
      </trkpt>
      <trkpt lat="46.30067" lon="2.43805">
        <ele>471.66</ele>
        <time>2021-08-04T19:20:49Z</time>
      </trkpt>
      <trkpt lat="46.29789" lon="2.43385">
        <ele>480.32</ele>
        <time>2021-08-04T19:21:07Z</time>
      </trkpt>
      <trkpt lat="46.29647" lon="2.43085">
        <ele>478.39</ele>
        <time>2021-08-04T19:21:17Z</time>
      </trkpt>
      <trkpt lat="46.29465" lon="2.42583">
        <ele>471.18</ele>
        <time>2021-08-04T19:21:32Z</time>
      </trkpt>
      <trkpt lat="46.2913" lon="2.41658">
        <ele>464.45</ele>
        <time>2021-08-04T19:22:00Z</time>
      </trkpt>
      <trkpt lat="46.28851" lon="2.40925">
        <ele>462.53</ele>
        <time>2021-08-04T19:22:22Z</time>
      </trkpt>
      <trkpt lat="46.28658" lon="2.40572">
        <ele>459.65</ele>
        <time>2021-08-04T19:22:34Z</time>
      </trkpt>
      <trkpt lat="46.28397" lon="2.40134">
        <ele>452.44</ele>
        <time>2021-08-04T19:22:49Z</time>
      </trkpt>
      <trkpt lat="46.28043" lon="2.39548">
        <ele>450.52</ele>
        <time>2021-08-04T19:23:09Z</time>
      </trkpt>
      <trkpt lat="46.27699" lon="2.38982">
        <ele>448.11</ele>
        <time>2021-08-04T19:23:29Z</time>
      </trkpt>
      <trkpt lat="46.27373" lon="2.38441">
        <ele>445.71</ele>
        <time>2021-08-04T19:23:47Z</time>
      </trkpt>
      <trkpt lat="46.26932" lon="2.37711">
        <ele>440.42</ele>
        <time>2021-08-04T19:24:12Z</time>
      </trkpt>
      <trkpt lat="46.26552" lon="2.37082">
        <ele>439.94</ele>
        <time>2021-08-04T19:24:33Z</time>
      </trkpt>
      <trkpt lat="46.26244" lon="2.36606">
        <ele>446.67</ele>
        <time>2021-08-04T19:24:50Z</time>
      </trkpt>
      <trkpt lat="46.25971" lon="2.36282">
        <ele>451.96</ele>
        <time>2021-08-04T19:25:03Z</time>
      </trkpt>
      <trkpt lat="46.25533" lon="2.35805">
        <ele>445.71</ele>
        <time>2021-08-04T19:25:23Z</time>
      </trkpt>
      <trkpt lat="46.25138" lon="2.35368">
        <ele>431.29</ele>
        <time>2021-08-04T19:25:41Z</time>
      </trkpt>
      <trkpt lat="46.24862" lon="2.35046">
        <ele>422.16</ele>
        <time>2021-08-04T19:25:53Z</time>
      </trkpt>
      <trkpt lat="46.2471" lon="2.34775">
        <ele>413.98</ele>
        <time>2021-08-04T19:26:02Z</time>
      </trkpt>
      <trkpt lat="46.2452" lon="2.34359">
        <ele>407.74</ele>
        <time>2021-08-04T19:26:16Z</time>
      </trkpt>
      <trkpt lat="46.24176" lon="2.33591">
        <ele>395.72</ele>
        <time>2021-08-04T19:26:40Z</time>
      </trkpt>
      <trkpt lat="46.23985" lon="2.33096">
        <ele>390.91</ele>
        <time>2021-08-04T19:26:55Z</time>
      </trkpt>
      <trkpt lat="46.23832" lon="2.32579">
        <ele>402.93</ele>
        <time>2021-08-04T19:27:10Z</time>
      </trkpt>
      <trkpt lat="46.23693" lon="2.32197">
        <ele>415.91</ele>
        <time>2021-08-04T19:27:22Z</time>
      </trkpt>
      <trkpt lat="46.23508" lon="2.31809">
        <ele>421.68</ele>
        <time>2021-08-04T19:27:35Z</time>
      </trkpt>
      <trkpt lat="46.23263" lon="2.31409">
        <ele>412.54</ele>
        <time>2021-08-04T19:27:49Z</time>
      </trkpt>
      <trkpt lat="46.22755" lon="2.30593">
        <ele>395.72</ele>
        <time>2021-08-04T19:28:18Z</time>
      </trkpt>
      <trkpt lat="46.22459" lon="2.30163">
        <ele>388.03</ele>
        <time>2021-08-04T19:28:33Z</time>
      </trkpt>
      <trkpt lat="46.22207" lon="2.29863">
        <ele>378.9</ele>
        <time>2021-08-04T19:28:46Z</time>
      </trkpt>
      <trkpt lat="46.22056" lon="2.29596">
        <ele>376.01</ele>
        <time>2021-08-04T19:28:55Z</time>
      </trkpt>
      <trkpt lat="46.21882" lon="2.29185">
        <ele>368.32</ele>
        <time>2021-08-04T19:29:08Z</time>
      </trkpt>
      <trkpt lat="46.21794" lon="2.28979">
        <ele>366.88</ele>
        <time>2021-08-04T19:29:16Z</time>
      </trkpt>
      <trkpt lat="46.21689" lon="2.28734">
        <ele>366.4</ele>
        <time>2021-08-04T19:29:25Z</time>
      </trkpt>
      <trkpt lat="46.21538" lon="2.28406">
        <ele>366.88</ele>
        <time>2021-08-04T19:29:38Z</time>
      </trkpt>
      <trkpt lat="46.21339" lon="2.2807">
        <ele>366.4</ele>
        <time>2021-08-04T19:29:50Z</time>
      </trkpt>
      <trkpt lat="46.20852" lon="2.27281">
        <ele>368.32</ele>
        <time>2021-08-04T19:30:17Z</time>
      </trkpt>
      <trkpt lat="46.20523" lon="2.26706">
        <ele>365.44</ele>
        <time>2021-08-04T19:30:35Z</time>
      </trkpt>
      <trkpt lat="46.20192" lon="2.26038">
        <ele>369.76</ele>
        <time>2021-08-04T19:30:57Z</time>
      </trkpt>
      <trkpt lat="46.199" lon="2.25418">
        <ele>372.65</ele>
        <time>2021-08-04T19:31:16Z</time>
      </trkpt>
      <trkpt lat="46.19852" lon="2.2519">
        <ele>372.65</ele>
        <time>2021-08-04T19:31:22Z</time>
      </trkpt>
      <trkpt lat="46.19854" lon="2.24915">
        <ele>372.65</ele>
        <time>2021-08-04T19:31:29Z</time>
      </trkpt>
      <trkpt lat="46.19902" lon="2.24595">
        <ele>372.17</ele>
        <time>2021-08-04T19:31:37Z</time>
      </trkpt>
      <trkpt lat="46.19927" lon="2.24271">
        <ele>369.76</ele>
        <time>2021-08-04T19:31:45Z</time>
      </trkpt>
      <trkpt lat="46.19904" lon="2.23945">
        <ele>367.84</ele>
        <time>2021-08-04T19:31:53Z</time>
      </trkpt>
      <trkpt lat="46.19826" lon="2.23553">
        <ele>370.24</ele>
        <time>2021-08-04T19:32:03Z</time>
      </trkpt>
      <trkpt lat="46.19636" lon="2.2273">
        <ele>373.61</ele>
        <time>2021-08-04T19:32:25Z</time>
      </trkpt>
      <trkpt lat="46.19543" lon="2.22241">
        <ele>374.57</ele>
        <time>2021-08-04T19:32:38Z</time>
      </trkpt>
      <trkpt lat="46.1954" lon="2.21931">
        <ele>376.01</ele>
        <time>2021-08-04T19:32:46Z</time>
      </trkpt>
      <trkpt lat="46.19596" lon="2.21595">
        <ele>376.97</ele>
        <time>2021-08-04T19:32:55Z</time>
      </trkpt>
      <trkpt lat="46.19783" lon="2.20675">
        <ele>379.86</ele>
        <time>2021-08-04T19:33:20Z</time>
      </trkpt>
      <trkpt lat="46.19809" lon="2.20333">
        <ele>381.78</ele>
        <time>2021-08-04T19:33:29Z</time>
      </trkpt>
      <trkpt lat="46.19789" lon="2.19844">
        <ele>385.15</ele>
        <time>2021-08-04T19:33:42Z</time>
      </trkpt>
      <trkpt lat="46.19735" lon="2.18955">
        <ele>390.91</ele>
        <time>2021-08-04T19:34:06Z</time>
      </trkpt>
      <trkpt lat="46.19675" lon="2.1864">
        <ele>399.08</ele>
        <time>2021-08-04T19:34:15Z</time>
      </trkpt>
      <trkpt lat="46.19549" lon="2.18159">
        <ele>416.39</ele>
        <time>2021-08-04T19:34:30Z</time>
      </trkpt>
      <trkpt lat="46.19412" lon="2.17605">
        <ele>422.64</ele>
        <time>2021-08-04T19:34:46Z</time>
      </trkpt>
      <trkpt lat="46.19382" lon="2.17275">
        <ele>418.31</ele>
        <time>2021-08-04T19:34:56Z</time>
      </trkpt>
      <trkpt lat="46.19401" lon="2.16921">
        <ele>408.22</ele>
        <time>2021-08-04T19:35:05Z</time>
      </trkpt>
      <trkpt lat="46.19486" lon="2.16297">
        <ele>394.28</ele>
        <time>2021-08-04T19:35:20Z</time>
      </trkpt>
      <trkpt lat="46.19617" lon="2.15383">
        <ele>385.63</ele>
        <time>2021-08-04T19:35:44Z</time>
      </trkpt>
      <trkpt lat="46.19707" lon="2.14738">
        <ele>381.78</ele>
        <time>2021-08-04T19:36:02Z</time>
      </trkpt>
      <trkpt lat="46.19782" lon="2.14312">
        <ele>388.03</ele>
        <time>2021-08-04T19:36:14Z</time>
      </trkpt>
      <trkpt lat="46.19894" lon="2.13753">
        <ele>388.51</ele>
        <time>2021-08-04T19:36:30Z</time>
      </trkpt>
      <trkpt lat="46.19938" lon="2.13264">
        <ele>399.08</ele>
        <time>2021-08-04T19:36:44Z</time>
      </trkpt>
      <trkpt lat="46.19987" lon="2.12692">
        <ele>398.6</ele>
        <time>2021-08-04T19:37:00Z</time>
      </trkpt>
      <trkpt lat="46.20043" lon="2.1204">
        <ele>387.07</ele>
        <time>2021-08-04T19:37:17Z</time>
      </trkpt>
      <trkpt lat="46.20088" lon="2.11523">
        <ele>394.28</ele>
        <time>2021-08-04T19:37:31Z</time>
      </trkpt>
      <trkpt lat="46.2015" lon="2.10799">
        <ele>408.7</ele>
        <time>2021-08-04T19:37:52Z</time>
      </trkpt>
      <trkpt lat="46.202" lon="2.10292">
        <ele>424.08</ele>
        <time>2021-08-04T19:38:07Z</time>
      </trkpt>
      <trkpt lat="46.20275" lon="2.10022">
        <ele>432.25</ele>
        <time>2021-08-04T19:38:16Z</time>
      </trkpt>
      <trkpt lat="46.20388" lon="2.09773">
        <ele>434.65</ele>
        <time>2021-08-04T19:38:25Z</time>
      </trkpt>
      <trkpt lat="46.20477" lon="2.09524">
        <ele>435.13</ele>
        <time>2021-08-04T19:38:33Z</time>
      </trkpt>
      <trkpt lat="46.20528" lon="2.09252">
        <ele>438.02</ele>
        <time>2021-08-04T19:38:41Z</time>
      </trkpt>
      <trkpt lat="46.2053" lon="2.0896">
        <ele>440.9</ele>
        <time>2021-08-04T19:38:49Z</time>
      </trkpt>
      <trkpt lat="46.20481" lon="2.08321">
        <ele>458.69</ele>
        <time>2021-08-04T19:39:06Z</time>
      </trkpt>
      <trkpt lat="46.20432" lon="2.0778">
        <ele>464.45</ele>
        <time>2021-08-04T19:39:22Z</time>
      </trkpt>
      <trkpt lat="46.2036" lon="2.07358">
        <ele>470.7</ele>
        <time>2021-08-04T19:39:34Z</time>
      </trkpt>
      <trkpt lat="46.20341" lon="2.06948">
        <ele>475.03</ele>
        <time>2021-08-04T19:39:45Z</time>
      </trkpt>
      <trkpt lat="46.20369" lon="2.06496">
        <ele>480.32</ele>
        <time>2021-08-04T19:39:57Z</time>
      </trkpt>
      <trkpt lat="46.20455" lon="2.05419">
        <ele>494.26</ele>
        <time>2021-08-04T19:40:25Z</time>
      </trkpt>
      <trkpt lat="46.20484" lon="2.0476">
        <ele>504.83</ele>
        <time>2021-08-04T19:40:43Z</time>
      </trkpt>
      <trkpt lat="46.20481" lon="2.04327">
        <ele>511.08</ele>
        <time>2021-08-04T19:40:55Z</time>
      </trkpt>
      <trkpt lat="46.2052" lon="2.04031">
        <ele>512.04</ele>
        <time>2021-08-04T19:41:04Z</time>
      </trkpt>
      <trkpt lat="46.2059" lon="2.03516">
        <ele>517.81</ele>
        <time>2021-08-04T19:41:18Z</time>
      </trkpt>
      <trkpt lat="46.20646" lon="2.02783">
        <ele>516.85</ele>
        <time>2021-08-04T19:41:37Z</time>
      </trkpt>
      <trkpt lat="46.20694" lon="2.0213">
        <ele>503.39</ele>
        <time>2021-08-04T19:41:54Z</time>
      </trkpt>
      <trkpt lat="46.20727" lon="2.01393">
        <ele>490.89</ele>
        <time>2021-08-04T19:42:12Z</time>
      </trkpt>
      <trkpt lat="46.20687" lon="2.01081">
        <ele>482.72</ele>
        <time>2021-08-04T19:42:21Z</time>
      </trkpt>
      <trkpt lat="46.20592" lon="2.0073">
        <ele>479.84</ele>
        <time>2021-08-04T19:42:31Z</time>
      </trkpt>
      <trkpt lat="46.20486" lon="2.00323">
        <ele>476.95</ele>
        <time>2021-08-04T19:42:43Z</time>
      </trkpt>
      <trkpt lat="46.20433" lon="1.99901">
        <ele>474.07</ele>
        <time>2021-08-04T19:42:55Z</time>
      </trkpt>
      <trkpt lat="46.2043" lon="1.99488">
        <ele>466.86</ele>
        <time>2021-08-04T19:43:06Z</time>
      </trkpt>
      <trkpt lat="46.20459" lon="1.99031">
        <ele>459.65</ele>
        <time>2021-08-04T19:43:18Z</time>
      </trkpt>
      <trkpt lat="46.20441" lon="1.98705">
        <ele>456.76</ele>
        <time>2021-08-04T19:43:27Z</time>
      </trkpt>
      <trkpt lat="46.20387" lon="1.98412">
        <ele>455.32</ele>
        <time>2021-08-04T19:43:36Z</time>
      </trkpt>
      <trkpt lat="46.20271" lon="1.98049">
        <ele>456.28</ele>
        <time>2021-08-04T19:43:48Z</time>
      </trkpt>
      <trkpt lat="46.20193" lon="1.97744">
        <ele>451.96</ele>
        <time>2021-08-04T19:43:58Z</time>
      </trkpt>
      <trkpt lat="46.20078" lon="1.97157">
        <ele>441.38</ele>
        <time>2021-08-04T19:44:17Z</time>
      </trkpt>
      <trkpt lat="46.19981" lon="1.96665">
        <ele>430.81</ele>
        <time>2021-08-04T19:44:33Z</time>
      </trkpt>
      <trkpt lat="46.19893" lon="1.96304">
        <ele>418.79</ele>
        <time>2021-08-04T19:44:46Z</time>
      </trkpt>
      <trkpt lat="46.19752" lon="1.95956">
        <ele>405.33</ele>
        <time>2021-08-04T19:44:58Z</time>
      </trkpt>
      <trkpt lat="46.19558" lon="1.95585">
        <ele>388.51</ele>
        <time>2021-08-04T19:45:12Z</time>
      </trkpt>
      <trkpt lat="46.19391" lon="1.95422">
        <ele>379.86</ele>
        <time>2021-08-04T19:45:20Z</time>
      </trkpt>
      <trkpt lat="46.192" lon="1.95321">
        <ele>367.36</ele>
        <time>2021-08-04T19:45:30Z</time>
      </trkpt>
      <trkpt lat="46.1906" lon="1.95209">
        <ele>356.79</ele>
        <time>2021-08-04T19:45:37Z</time>
      </trkpt>
      <trkpt lat="46.18977" lon="1.95056">
        <ele>350.54</ele>
        <time>2021-08-04T19:45:43Z</time>
      </trkpt>
      <trkpt lat="46.18926" lon="1.94841">
        <ele>340.92</ele>
        <time>2021-08-04T19:45:50Z</time>
      </trkpt>
      <trkpt lat="46.18903" lon="1.94486">
        <ele>326.99</ele>
        <time>2021-08-04T19:46:01Z</time>
      </trkpt>
      <trkpt lat="46.18883" lon="1.94056">
        <ele>327.95</ele>
        <time>2021-08-04T19:46:15Z</time>
      </trkpt>
      <trkpt lat="46.18846" lon="1.93446">
        <ele>343.81</ele>
        <time>2021-08-04T19:46:36Z</time>
      </trkpt>
      <trkpt lat="46.18793" lon="1.93227">
        <ele>348.62</ele>
        <time>2021-08-04T19:46:45Z</time>
      </trkpt>
      <trkpt lat="46.18694" lon="1.92964">
        <ele>349.58</ele>
        <time>2021-08-04T19:46:56Z</time>
      </trkpt>
      <trkpt lat="46.18531" lon="1.92564">
        <ele>350.06</ele>
        <time>2021-08-04T19:47:13Z</time>
      </trkpt>
      <trkpt lat="46.1832" lon="1.92034">
        <ele>359.67</ele>
        <time>2021-08-04T19:47:31Z</time>
      </trkpt>
      <trkpt lat="46.18145" lon="1.91625">
        <ele>363.04</ele>
        <time>2021-08-04T19:47:46Z</time>
      </trkpt>
      <trkpt lat="46.1802" lon="1.91241">
        <ele>369.76</ele>
        <time>2021-08-04T19:47:58Z</time>
      </trkpt>
      <trkpt lat="46.17914" lon="1.90759">
        <ele>380.82</ele>
        <time>2021-08-04T19:48:13Z</time>
      </trkpt>
      <trkpt lat="46.17783" lon="1.9008">
        <ele>386.59</ele>
        <time>2021-08-04T19:48:34Z</time>
      </trkpt>
      <trkpt lat="46.17785" lon="1.89833">
        <ele>386.11</ele>
        <time>2021-08-04T19:48:41Z</time>
      </trkpt>
      <trkpt lat="46.17851" lon="1.89522">
        <ele>391.39</ele>
        <time>2021-08-04T19:48:50Z</time>
      </trkpt>
      <trkpt lat="46.1803" lon="1.88789">
        <ele>392.36</ele>
        <time>2021-08-04T19:49:11Z</time>
      </trkpt>
      <trkpt lat="46.18176" lon="1.88182">
        <ele>383.22</ele>
        <time>2021-08-04T19:49:27Z</time>
      </trkpt>
      <trkpt lat="46.18286" lon="1.87616">
        <ele>382.26</ele>
        <time>2021-08-04T19:49:42Z</time>
      </trkpt>
      <trkpt lat="46.18394" lon="1.86957">
        <ele>384.66</ele>
        <time>2021-08-04T19:50:00Z</time>
      </trkpt>
      <trkpt lat="46.18472" lon="1.86369">
        <ele>375.05</ele>
        <time>2021-08-04T19:50:15Z</time>
      </trkpt>
      <trkpt lat="46.18498" lon="1.85919">
        <ele>363.52</ele>
        <time>2021-08-04T19:50:26Z</time>
      </trkpt>
      <trkpt lat="46.18487" lon="1.85447">
        <ele>366.4</ele>
        <time>2021-08-04T19:50:38Z</time>
      </trkpt>
      <trkpt lat="46.18458" lon="1.84775">
        <ele>381.78</ele>
        <time>2021-08-04T19:50:56Z</time>
      </trkpt>
      <trkpt lat="46.18483" lon="1.84318">
        <ele>392.36</ele>
        <time>2021-08-04T19:51:09Z</time>
      </trkpt>
      <trkpt lat="46.18546" lon="1.83597">
        <ele>403.41</ele>
        <time>2021-08-04T19:51:30Z</time>
      </trkpt>
      <trkpt lat="46.18605" lon="1.82867">
        <ele>406.77</ele>
        <time>2021-08-04T19:51:50Z</time>
      </trkpt>
      <trkpt lat="46.18625" lon="1.82459">
        <ele>410.62</ele>
        <time>2021-08-04T19:52:01Z</time>
      </trkpt>
      <trkpt lat="46.18691" lon="1.82193">
        <ele>422.16</ele>
        <time>2021-08-04T19:52:09Z</time>
      </trkpt>
      <trkpt lat="46.18779" lon="1.81816">
        <ele>437.06</ele>
        <time>2021-08-04T19:52:21Z</time>
      </trkpt>
      <trkpt lat="46.18846" lon="1.81451">
        <ele>454.36</ele>
        <time>2021-08-04T19:52:33Z</time>
      </trkpt>
      <trkpt lat="46.18946" lon="1.81223">
        <ele>467.34</ele>
        <time>2021-08-04T19:52:42Z</time>
      </trkpt>
      <trkpt lat="46.19094" lon="1.80872">
        <ele>481.28</ele>
        <time>2021-08-04T19:52:56Z</time>
      </trkpt>
      <trkpt lat="46.19199" lon="1.80482">
        <ele>489.45</ele>
        <time>2021-08-04T19:53:10Z</time>
      </trkpt>
      <trkpt lat="46.1931" lon="1.80061">
        <ele>485.12</ele>
        <time>2021-08-04T19:53:23Z</time>
      </trkpt>
      <trkpt lat="46.19444" lon="1.79553">
        <ele>477.43</ele>
        <time>2021-08-04T19:53:37Z</time>
      </trkpt>
      <trkpt lat="46.19614" lon="1.78897">
        <ele>474.07</ele>
        <time>2021-08-04T19:53:56Z</time>
      </trkpt>
      <trkpt lat="46.19703" lon="1.78476">
        <ele>470.22</ele>
        <time>2021-08-04T19:54:08Z</time>
      </trkpt>
      <trkpt lat="46.19783" lon="1.77998">
        <ele>485.12</ele>
        <time>2021-08-04T19:54:22Z</time>
      </trkpt>
      <trkpt lat="46.19778" lon="1.77724">
        <ele>491.85</ele>
        <time>2021-08-04T19:54:30Z</time>
      </trkpt>
      <trkpt lat="46.19723" lon="1.77481">
        <ele>494.26</ele>
        <time>2021-08-04T19:54:37Z</time>
      </trkpt>
      <trkpt lat="46.19671" lon="1.77214">
        <ele>489.45</ele>
        <time>2021-08-04T19:54:44Z</time>
      </trkpt>
      <trkpt lat="46.19673" lon="1.76925">
        <ele>478.39</ele>
        <time>2021-08-04T19:54:51Z</time>
      </trkpt>
      <trkpt lat="46.19739" lon="1.76511">
        <ele>462.53</ele>
        <time>2021-08-04T19:55:01Z</time>
      </trkpt>
      <trkpt lat="46.19843" lon="1.75875">
        <ele>443.31</ele>
        <time>2021-08-04T19:55:17Z</time>
      </trkpt>
      <trkpt lat="46.19943" lon="1.75471">
        <ele>445.71</ele>
        <time>2021-08-04T19:55:28Z</time>
      </trkpt>
      <trkpt lat="46.20045" lon="1.75278">
        <ele>444.27</ele>
        <time>2021-08-04T19:55:34Z</time>
      </trkpt>
      <trkpt lat="46.20202" lon="1.75108">
        <ele>442.34</ele>
        <time>2021-08-04T19:55:40Z</time>
      </trkpt>
      <trkpt lat="46.20362" lon="1.75021">
        <ele>439.46</ele>
        <time>2021-08-04T19:55:47Z</time>
      </trkpt>
      <trkpt lat="46.20613" lon="1.74971">
        <ele>440.42</ele>
        <time>2021-08-04T19:55:56Z</time>
      </trkpt>
      <trkpt lat="46.20808" lon="1.74907">
        <ele>444.75</ele>
        <time>2021-08-04T19:56:03Z</time>
      </trkpt>
      <trkpt lat="46.2103" lon="1.74738">
        <ele>448.59</ele>
        <time>2021-08-04T19:56:11Z</time>
      </trkpt>
      <trkpt lat="46.21154" lon="1.7458">
        <ele>452.92</ele>
        <time>2021-08-04T19:56:18Z</time>
      </trkpt>
      <trkpt lat="46.21258" lon="1.74347">
        <ele>456.76</ele>
        <time>2021-08-04T19:56:25Z</time>
      </trkpt>
      <trkpt lat="46.21387" lon="1.73879">
        <ele>458.69</ele>
        <time>2021-08-04T19:56:38Z</time>
      </trkpt>
      <trkpt lat="46.21529" lon="1.73296">
        <ele>450.03</ele>
        <time>2021-08-04T19:56:54Z</time>
      </trkpt>
      <trkpt lat="46.21561" lon="1.72939">
        <ele>438.98</ele>
        <time>2021-08-04T19:57:03Z</time>
      </trkpt>
      <trkpt lat="46.21606" lon="1.72361">
        <ele>439.94</ele>
        <time>2021-08-04T19:57:18Z</time>
      </trkpt>
      <trkpt lat="46.21689" lon="1.71777">
        <ele>450.03</ele>
        <time>2021-08-04T19:57:35Z</time>
      </trkpt>
      <trkpt lat="46.2169" lon="1.71524">
        <ele>446.19</ele>
        <time>2021-08-04T19:57:42Z</time>
      </trkpt>
      <trkpt lat="46.21685" lon="1.71318">
        <ele>438.5</ele>
        <time>2021-08-04T19:57:49Z</time>
      </trkpt>
      <trkpt lat="46.21733" lon="1.71063">
        <ele>431.29</ele>
        <time>2021-08-04T19:57:56Z</time>
      </trkpt>
      <trkpt lat="46.21888" lon="1.70618">
        <ele>430.33</ele>
        <time>2021-08-04T19:58:09Z</time>
      </trkpt>
      <trkpt lat="46.22097" lon="1.70032">
        <ele>438.5</ele>
        <time>2021-08-04T19:58:26Z</time>
      </trkpt>
      <trkpt lat="46.22134" lon="1.69858">
        <ele>444.27</ele>
        <time>2021-08-04T19:58:32Z</time>
      </trkpt>
      <trkpt lat="46.22131" lon="1.69647">
        <ele>447.15</ele>
        <time>2021-08-04T19:58:38Z</time>
      </trkpt>
      <trkpt lat="46.22101" lon="1.6917">
        <ele>449.55</ele>
        <time>2021-08-04T19:58:51Z</time>
      </trkpt>
      <trkpt lat="46.22137" lon="1.68805">
        <ele>442.34</ele>
        <time>2021-08-04T19:58:59Z</time>
      </trkpt>
      <trkpt lat="46.22176" lon="1.68445">
        <ele>430.81</ele>
        <time>2021-08-04T19:59:09Z</time>
      </trkpt>
      <trkpt lat="46.22234" lon="1.67763">
        <ele>421.68</ele>
        <time>2021-08-04T19:59:26Z</time>
      </trkpt>
      <trkpt lat="46.22262" lon="1.67261">
        <ele>426.48</ele>
        <time>2021-08-04T19:59:39Z</time>
      </trkpt>
      <trkpt lat="46.22228" lon="1.66919">
        <ele>428.4</ele>
        <time>2021-08-04T19:59:48Z</time>
      </trkpt>
      <trkpt lat="46.22146" lon="1.66434">
        <ele>426.48</ele>
        <time>2021-08-04T20:00:00Z</time>
      </trkpt>
      <trkpt lat="46.22039" lon="1.66005">
        <ele>417.35</ele>
        <time>2021-08-04T20:00:13Z</time>
      </trkpt>
      <trkpt lat="46.21939" lon="1.65822">
        <ele>410.14</ele>
        <time>2021-08-04T20:00:19Z</time>
      </trkpt>
      <trkpt lat="46.2174" lon="1.65508">
        <ele>397.16</ele>
        <time>2021-08-04T20:00:30Z</time>
      </trkpt>
      <trkpt lat="46.21676" lon="1.65288">
        <ele>391.87</ele>
        <time>2021-08-04T20:00:36Z</time>
      </trkpt>
      <trkpt lat="46.2154" lon="1.6473">
        <ele>396.2</ele>
        <time>2021-08-04T20:00:51Z</time>
      </trkpt>
      <trkpt lat="46.2142" lon="1.64194">
        <ele>394.28</ele>
        <time>2021-08-04T20:01:07Z</time>
      </trkpt>
      <trkpt lat="46.21423" lon="1.63927">
        <ele>393.8</ele>
        <time>2021-08-04T20:01:14Z</time>
      </trkpt>
      <trkpt lat="46.2149" lon="1.63631">
        <ele>392.84</ele>
        <time>2021-08-04T20:01:21Z</time>
      </trkpt>
      <trkpt lat="46.2165" lon="1.63143">
        <ele>395.24</ele>
        <time>2021-08-04T20:01:36Z</time>
      </trkpt>
      <trkpt lat="46.21798" lon="1.62705">
        <ele>410.14</ele>
        <time>2021-08-04T20:01:50Z</time>
      </trkpt>
      <trkpt lat="46.22003" lon="1.62053">
        <ele>426.96</ele>
        <time>2021-08-04T20:02:11Z</time>
      </trkpt>
      <trkpt lat="46.22138" lon="1.61558">
        <ele>426.48</ele>
        <time>2021-08-04T20:02:25Z</time>
      </trkpt>
      <trkpt lat="46.22237" lon="1.61112">
        <ele>417.83</ele>
        <time>2021-08-04T20:02:37Z</time>
      </trkpt>
      <trkpt lat="46.22254" lon="1.60833">
        <ele>412.54</ele>
        <time>2021-08-04T20:02:44Z</time>
      </trkpt>
      <trkpt lat="46.2222" lon="1.60472">
        <ele>403.41</ele>
        <time>2021-08-04T20:02:53Z</time>
      </trkpt>
      <trkpt lat="46.22131" lon="1.59755">
        <ele>399.57</ele>
        <time>2021-08-04T20:03:12Z</time>
      </trkpt>
      <trkpt lat="46.22096" lon="1.59322">
        <ele>406.77</ele>
        <time>2021-08-04T20:03:24Z</time>
      </trkpt>
      <trkpt lat="46.22122" lon="1.58909">
        <ele>410.62</ele>
        <time>2021-08-04T20:03:35Z</time>
      </trkpt>
      <trkpt lat="46.2219" lon="1.58478">
        <ele>411.1</ele>
        <time>2021-08-04T20:03:45Z</time>
      </trkpt>
      <trkpt lat="46.22274" lon="1.58054">
        <ele>405.33</ele>
        <time>2021-08-04T20:03:56Z</time>
      </trkpt>
      <trkpt lat="46.22303" lon="1.57701">
        <ele>404.85</ele>
        <time>2021-08-04T20:04:06Z</time>
      </trkpt>
      <trkpt lat="46.22306" lon="1.57238">
        <ele>408.7</ele>
        <time>2021-08-04T20:04:18Z</time>
      </trkpt>
      <trkpt lat="46.22345" lon="1.56816">
        <ele>413.02</ele>
        <time>2021-08-04T20:04:29Z</time>
      </trkpt>
      <trkpt lat="46.22474" lon="1.56147">
        <ele>417.83</ele>
        <time>2021-08-04T20:04:47Z</time>
      </trkpt>
      <trkpt lat="46.22612" lon="1.55523">
        <ele>421.68</ele>
        <time>2021-08-04T20:05:04Z</time>
      </trkpt>
      <trkpt lat="46.22722" lon="1.55308">
        <ele>425.04</ele>
        <time>2021-08-04T20:05:11Z</time>
      </trkpt>
      <trkpt lat="46.22869" lon="1.55144">
        <ele>422.16</ele>
        <time>2021-08-04T20:05:18Z</time>
      </trkpt>
      <trkpt lat="46.23115" lon="1.54948">
        <ele>421.19</ele>
        <time>2021-08-04T20:05:28Z</time>
      </trkpt>
      <trkpt lat="46.23291" lon="1.54696">
        <ele>425.52</ele>
        <time>2021-08-04T20:05:36Z</time>
      </trkpt>
      <trkpt lat="46.23401" lon="1.54426">
        <ele>426.96</ele>
        <time>2021-08-04T20:05:44Z</time>
      </trkpt>
      <trkpt lat="46.23553" lon="1.54044">
        <ele>423.12</ele>
        <time>2021-08-04T20:05:56Z</time>
      </trkpt>
      <trkpt lat="46.23711" lon="1.53703">
        <ele>414.95</ele>
        <time>2021-08-04T20:06:06Z</time>
      </trkpt>
      <trkpt lat="46.23782" lon="1.53403">
        <ele>413.02</ele>
        <time>2021-08-04T20:06:14Z</time>
      </trkpt>
      <trkpt lat="46.23864" lon="1.52933">
        <ele>407.74</ele>
        <time>2021-08-04T20:06:27Z</time>
      </trkpt>
      <trkpt lat="46.23867" lon="1.52622">
        <ele>401.97</ele>
        <time>2021-08-04T20:06:35Z</time>
      </trkpt>
      <trkpt lat="46.2382" lon="1.5232">
        <ele>394.76</ele>
        <time>2021-08-04T20:06:43Z</time>
      </trkpt>
      <trkpt lat="46.23708" lon="1.51899">
        <ele>388.03</ele>
        <time>2021-08-04T20:06:55Z</time>
      </trkpt>
      <trkpt lat="46.23567" lon="1.51576">
        <ele>386.11</ele>
        <time>2021-08-04T20:07:05Z</time>
      </trkpt>
      <trkpt lat="46.23401" lon="1.5133">
        <ele>382.74</ele>
        <time>2021-08-04T20:07:14Z</time>
      </trkpt>
      <trkpt lat="46.2319" lon="1.51047">
        <ele>377.45</ele>
        <time>2021-08-04T20:07:25Z</time>
      </trkpt>
      <trkpt lat="46.22891" lon="1.50602">
        <ele>368.8</ele>
        <time>2021-08-04T20:07:40Z</time>
      </trkpt>
      <trkpt lat="46.22766" lon="1.50356">
        <ele>365.44</ele>
        <time>2021-08-04T20:07:49Z</time>
      </trkpt>
      <trkpt lat="46.22449" lon="1.49618">
        <ele>375.05</ele>
        <time>2021-08-04T20:08:12Z</time>
      </trkpt>
      <trkpt lat="46.2235" lon="1.49325">
        <ele>379.38</ele>
        <time>2021-08-04T20:08:21Z</time>
      </trkpt>
      <trkpt lat="46.22301" lon="1.49036">
        <ele>382.26</ele>
        <time>2021-08-04T20:08:29Z</time>
      </trkpt>
      <trkpt lat="46.22302" lon="1.48742">
        <ele>381.3</ele>
        <time>2021-08-04T20:08:37Z</time>
      </trkpt>
      <trkpt lat="46.22353" lon="1.4845">
        <ele>377.94</ele>
        <time>2021-08-04T20:08:45Z</time>
      </trkpt>
      <trkpt lat="46.22476" lon="1.48074">
        <ele>374.09</ele>
        <time>2021-08-04T20:08:55Z</time>
      </trkpt>
      <trkpt lat="46.22631" lon="1.47551">
        <ele>375.53</ele>
        <time>2021-08-04T20:09:11Z</time>
      </trkpt>
      <trkpt lat="46.2265" lon="1.47299">
        <ele>378.9</ele>
        <time>2021-08-04T20:09:18Z</time>
      </trkpt>
      <trkpt lat="46.2263" lon="1.46824">
        <ele>378.42</ele>
        <time>2021-08-04T20:09:31Z</time>
      </trkpt>
      <trkpt lat="46.22553" lon="1.4635">
        <ele>375.53</ele>
        <time>2021-08-04T20:09:44Z</time>
      </trkpt>
      <trkpt lat="46.22457" lon="1.46003">
        <ele>371.69</ele>
        <time>2021-08-04T20:09:54Z</time>
      </trkpt>
      <trkpt lat="46.22323" lon="1.45769">
        <ele>367.36</ele>
        <time>2021-08-04T20:10:01Z</time>
      </trkpt>
      <trkpt lat="46.22149" lon="1.45585">
        <ele>363.52</ele>
        <time>2021-08-04T20:10:10Z</time>
      </trkpt>
      <trkpt lat="46.21923" lon="1.45315">
        <ele>363.52</ele>
        <time>2021-08-04T20:10:21Z</time>
      </trkpt>
      <trkpt lat="46.21785" lon="1.45034">
        <ele>360.15</ele>
        <time>2021-08-04T20:10:30Z</time>
      </trkpt>
      <trkpt lat="46.21701" lon="1.44722">
        <ele>360.63</ele>
        <time>2021-08-04T20:10:39Z</time>
      </trkpt>
      <trkpt lat="46.21577" lon="1.44126">
        <ele>361.59</ele>
        <time>2021-08-04T20:10:56Z</time>
      </trkpt>
      <trkpt lat="46.21573" lon="1.43868">
        <ele>360.63</ele>
        <time>2021-08-04T20:11:03Z</time>
      </trkpt>
      <trkpt lat="46.21623" lon="1.43527">
        <ele>355.34</ele>
        <time>2021-08-04T20:11:12Z</time>
      </trkpt>
      <trkpt lat="46.21757" lon="1.42667">
        <ele>356.79</ele>
        <time>2021-08-04T20:11:34Z</time>
      </trkpt>
      <trkpt lat="46.21754" lon="1.42332">
        <ele>361.11</ele>
        <time>2021-08-04T20:11:44Z</time>
      </trkpt>
      <trkpt lat="46.21721" lon="1.42065">
        <ele>362.55</ele>
        <time>2021-08-04T20:11:52Z</time>
      </trkpt>
      <trkpt lat="46.21634" lon="1.41714">
        <ele>365.44</ele>
        <time>2021-08-04T20:12:03Z</time>
      </trkpt>
      <trkpt lat="46.21516" lon="1.4129">
        <ele>364</ele>
        <time>2021-08-04T20:12:16Z</time>
      </trkpt>
      <trkpt lat="46.21384" lon="1.40977">
        <ele>357.27</ele>
        <time>2021-08-04T20:12:26Z</time>
      </trkpt>
      <trkpt lat="46.21204" lon="1.4059">
        <ele>357.75</ele>
        <time>2021-08-04T20:12:39Z</time>
      </trkpt>
      <trkpt lat="46.20975" lon="1.40102">
        <ele>351.5</ele>
        <time>2021-08-04T20:12:56Z</time>
      </trkpt>
      <trkpt lat="46.20787" lon="1.39718">
        <ele>357.27</ele>
        <time>2021-08-04T20:13:09Z</time>
      </trkpt>
      <trkpt lat="46.20685" lon="1.39542">
        <ele>363.52</ele>
        <time>2021-08-04T20:13:17Z</time>
      </trkpt>
      <trkpt lat="46.20635" lon="1.39451">
        <ele>364.48</ele>
        <time>2021-08-04T20:13:25Z</time>
      </trkpt>
      <trkpt lat="46.20582" lon="1.39314">
        <ele>361.11</ele>
        <time>2021-08-04T20:13:35Z</time>
      </trkpt>
      <trkpt lat="46.20548" lon="1.3918">
        <ele>360.63</ele>
        <time>2021-08-04T20:13:47Z</time>
      </trkpt>
      <trkpt lat="46.20546" lon="1.39145">
        <ele>361.59</ele>
        <time>2021-08-04T20:13:54Z</time>
      </trkpt>
      <trkpt lat="46.20545" lon="1.39127">
        <ele>362.55</ele>
        <time>2021-08-04T20:13:58Z</time>
      </trkpt>
      <trkpt lat="46.20548" lon="1.3912">
        <ele>362.55</ele>
        <time>2021-08-04T20:13:59Z</time>
      </trkpt>
      <trkpt lat="46.2055" lon="1.39114">
        <ele>362.55</ele>
        <time>2021-08-04T20:14:00Z</time>
      </trkpt>
      <trkpt lat="46.20553" lon="1.39106">
        <ele>363.04</ele>
        <time>2021-08-04T20:14:01Z</time>
      </trkpt>
      <trkpt lat="46.20556" lon="1.39102">
        <ele>363.04</ele>
        <time>2021-08-04T20:14:02Z</time>
      </trkpt>
      <trkpt lat="46.20562" lon="1.39098">
        <ele>363.04</ele>
        <time>2021-08-04T20:14:03Z</time>
      </trkpt>
      <trkpt lat="46.20569" lon="1.39094">
        <ele>363.52</ele>
        <time>2021-08-04T20:14:04Z</time>
      </trkpt>
      <trkpt lat="46.20575" lon="1.3908">
        <ele>363.52</ele>
        <time>2021-08-04T20:14:05Z</time>
      </trkpt>
      <trkpt lat="46.20577" lon="1.39072">
        <ele>363.52</ele>
        <time>2021-08-04T20:14:06Z</time>
      </trkpt>
      <trkpt lat="46.20575" lon="1.39059">
        <ele>364</ele>
        <time>2021-08-04T20:14:07Z</time>
      </trkpt>
      <trkpt lat="46.20572" lon="1.39049">
        <ele>363.52</ele>
        <time>2021-08-04T20:14:08Z</time>
      </trkpt>
      <trkpt lat="46.20571" lon="1.39041">
        <ele>364</ele>
        <time>2021-08-04T20:14:09Z</time>
      </trkpt>
      <trkpt lat="46.20565" lon="1.39036">
        <ele>364.48</ele>
        <time>2021-08-04T20:14:10Z</time>
      </trkpt>
      <trkpt lat="46.20559" lon="1.39024">
        <ele>364.48</ele>
        <time>2021-08-04T20:14:11Z</time>
      </trkpt>
      <trkpt lat="46.20558" lon="1.39016">
        <ele>364</ele>
        <time>2021-08-04T20:14:12Z</time>
      </trkpt>
      <trkpt lat="46.20556" lon="1.39007">
        <ele>363.52</ele>
        <time>2021-08-04T20:14:13Z</time>
      </trkpt>
      <trkpt lat="46.20538" lon="1.38906">
        <ele>362.07</ele>
        <time>2021-08-04T20:14:20Z</time>
      </trkpt>
      <trkpt lat="46.20492" lon="1.38758">
        <ele>364</ele>
        <time>2021-08-04T20:14:30Z</time>
      </trkpt>
      <trkpt lat="46.20443" lon="1.38572">
        <ele>369.28</ele>
        <time>2021-08-04T20:14:42Z</time>
      </trkpt>
      <trkpt lat="46.20396" lon="1.38342">
        <ele>371.21</ele>
        <time>2021-08-04T20:14:55Z</time>
      </trkpt>
      <trkpt lat="46.20371" lon="1.38223">
        <ele>370.73</ele>
        <time>2021-08-04T20:15:03Z</time>
      </trkpt>
      <trkpt lat="46.20357" lon="1.38153">
        <ele>371.21</ele>
        <time>2021-08-04T20:15:16Z</time>
      </trkpt>
      <trkpt lat="46.20344" lon="1.3809">
        <ele>371.21</ele>
        <time>2021-08-04T20:15:36Z</time>
      </trkpt>
      <trkpt lat="46.2034" lon="1.38044">
        <ele>371.69</ele>
        <time>2021-08-04T20:15:46Z</time>
      </trkpt>
      <trkpt lat="46.2034" lon="1.38036">
        <ele>371.69</ele>
        <time>2021-08-04T20:15:47Z</time>
      </trkpt>
      <trkpt lat="46.20341" lon="1.38027">
        <ele>371.69</ele>
        <time>2021-08-04T20:15:48Z</time>
      </trkpt>
      <trkpt lat="46.20352" lon="1.38007">
        <ele>371.69</ele>
        <time>2021-08-04T20:15:50Z</time>
      </trkpt>
      <trkpt lat="46.20352" lon="1.38007">
        <ele>371.69</ele>
        <time>2021-08-04T20:15:51Z</time>
      </trkpt>
      <trkpt lat="46.20351" lon="1.37998">
        <ele>371.69</ele>
        <time>2021-08-04T20:15:52Z</time>
      </trkpt>
      <trkpt lat="46.20351" lon="1.37989">
        <ele>371.69</ele>
        <time>2021-08-04T20:15:53Z</time>
      </trkpt>
      <trkpt lat="46.20347" lon="1.37973">
        <ele>371.69</ele>
        <time>2021-08-04T20:15:54Z</time>
      </trkpt>
      <trkpt lat="46.20347" lon="1.37973">
        <ele>372.17</ele>
        <time>2021-08-04T20:15:55Z</time>
      </trkpt>
      <trkpt lat="46.20341" lon="1.37967">
        <ele>372.17</ele>
        <time>2021-08-04T20:15:56Z</time>
      </trkpt>
      <trkpt lat="46.20334" lon="1.37961">
        <ele>372.65</ele>
        <time>2021-08-04T20:15:57Z</time>
      </trkpt>
      <trkpt lat="46.20328" lon="1.37951">
        <ele>372.65</ele>
        <time>2021-08-04T20:15:58Z</time>
      </trkpt>
      <trkpt lat="46.20323" lon="1.3794">
        <ele>372.65</ele>
        <time>2021-08-04T20:15:59Z</time>
      </trkpt>
      <trkpt lat="46.20316" lon="1.37927">
        <ele>372.65</ele>
        <time>2021-08-04T20:16:00Z</time>
      </trkpt>
      <trkpt lat="46.20311" lon="1.37909">
        <ele>372.17</ele>
        <time>2021-08-04T20:16:01Z</time>
      </trkpt>
      <trkpt lat="46.20271" lon="1.37738">
        <ele>373.61</ele>
        <time>2021-08-04T20:16:09Z</time>
      </trkpt>
      <trkpt lat="46.20207" lon="1.37433">
        <ele>373.13</ele>
        <time>2021-08-04T20:16:20Z</time>
      </trkpt>
      <trkpt lat="46.20104" lon="1.36932">
        <ele>370.24</ele>
        <time>2021-08-04T20:16:37Z</time>
      </trkpt>
      <trkpt lat="46.19994" lon="1.36483">
        <ele>367.36</ele>
        <time>2021-08-04T20:16:52Z</time>
      </trkpt>
      <trkpt lat="46.19985" lon="1.36296">
        <ele>367.36</ele>
        <time>2021-08-04T20:16:58Z</time>
      </trkpt>
      <trkpt lat="46.20043" lon="1.36003">
        <ele>363.52</ele>
        <time>2021-08-04T20:17:07Z</time>
      </trkpt>
      <trkpt lat="46.2014" lon="1.35566">
        <ele>347.65</ele>
        <time>2021-08-04T20:17:21Z</time>
      </trkpt>
      <trkpt lat="46.20274" lon="1.34956">
        <ele>349.58</ele>
        <time>2021-08-04T20:17:42Z</time>
      </trkpt>
      <trkpt lat="46.20352" lon="1.34596">
        <ele>348.13</ele>
        <time>2021-08-04T20:17:54Z</time>
      </trkpt>
      <trkpt lat="46.20349" lon="1.34394">
        <ele>341.89</ele>
        <time>2021-08-04T20:18:01Z</time>
      </trkpt>
      <trkpt lat="46.20289" lon="1.33877">
        <ele>330.83</ele>
        <time>2021-08-04T20:18:19Z</time>
      </trkpt>
      <trkpt lat="46.2023" lon="1.33359">
        <ele>315.93</ele>
        <time>2021-08-04T20:18:36Z</time>
      </trkpt>
      <trkpt lat="46.20163" lon="1.32902">
        <ele>299.11</ele>
        <time>2021-08-04T20:18:50Z</time>
      </trkpt>
      <trkpt lat="46.20096" lon="1.32567">
        <ele>301.03</ele>
        <time>2021-08-04T20:19:01Z</time>
      </trkpt>
      <trkpt lat="46.20046" lon="1.32203">
        <ele>312.57</ele>
        <time>2021-08-04T20:19:14Z</time>
      </trkpt>
      <trkpt lat="46.19987" lon="1.3171">
        <ele>318.81</ele>
        <time>2021-08-04T20:19:32Z</time>
      </trkpt>
      <trkpt lat="46.19909" lon="1.31326">
        <ele>311.6</ele>
        <time>2021-08-04T20:19:45Z</time>
      </trkpt>
      <trkpt lat="46.19824" lon="1.30961">
        <ele>307.28</ele>
        <time>2021-08-04T20:19:58Z</time>
      </trkpt>
      <trkpt lat="46.19824" lon="1.30752">
        <ele>314.01</ele>
        <time>2021-08-04T20:20:06Z</time>
      </trkpt>
      <trkpt lat="46.19837" lon="1.30504">
        <ele>319.3</ele>
        <time>2021-08-04T20:20:17Z</time>
      </trkpt>
      <trkpt lat="46.19882" lon="1.30348">
        <ele>324.58</ele>
        <time>2021-08-04T20:20:24Z</time>
      </trkpt>
      <trkpt lat="46.19919" lon="1.30228">
        <ele>326.5</ele>
        <time>2021-08-04T20:20:31Z</time>
      </trkpt>
      <trkpt lat="46.19923" lon="1.30194">
        <ele>326.5</ele>
        <time>2021-08-04T20:20:32Z</time>
      </trkpt>
      <trkpt lat="46.19923" lon="1.30194">
        <ele>327.47</ele>
        <time>2021-08-04T20:20:33Z</time>
      </trkpt>
      <trkpt lat="46.1992" lon="1.29979">
        <ele>327.47</ele>
        <time>2021-08-04T20:20:46Z</time>
      </trkpt>
      <trkpt lat="46.19916" lon="1.29656">
        <ele>328.43</ele>
        <time>2021-08-04T20:21:06Z</time>
      </trkpt>
      <trkpt lat="46.19916" lon="1.29475">
        <ele>325.06</ele>
        <time>2021-08-04T20:21:15Z</time>
      </trkpt>
      <trkpt lat="46.19916" lon="1.29475">
        <ele>324.1</ele>
        <time>2021-08-04T20:21:16Z</time>
      </trkpt>
      <trkpt lat="46.19836" lon="1.29156">
        <ele>322.18</ele>
        <time>2021-08-04T20:21:33Z</time>
      </trkpt>
      <trkpt lat="46.19766" lon="1.28885">
        <ele>316.41</ele>
        <time>2021-08-04T20:21:45Z</time>
      </trkpt>
      <trkpt lat="46.19688" lon="1.28567">
        <ele>320.26</ele>
        <time>2021-08-04T20:21:58Z</time>
      </trkpt>
      <trkpt lat="46.19668" lon="1.28453">
        <ele>322.66</ele>
        <time>2021-08-04T20:22:02Z</time>
      </trkpt>
      <trkpt lat="46.19666" lon="1.28424">
        <ele>323.14</ele>
        <time>2021-08-04T20:22:03Z</time>
      </trkpt>
      <trkpt lat="46.19679" lon="1.28013">
        <ele>327.47</ele>
        <time>2021-08-04T20:22:16Z</time>
      </trkpt>
      <trkpt lat="46.19688" lon="1.27598">
        <ele>327.95</ele>
        <time>2021-08-04T20:22:30Z</time>
      </trkpt>
      <trkpt lat="46.19629" lon="1.27344">
        <ele>323.14</ele>
        <time>2021-08-04T20:22:38Z</time>
      </trkpt>
      <trkpt lat="46.19502" lon="1.26853">
        <ele>317.85</ele>
        <time>2021-08-04T20:22:56Z</time>
      </trkpt>
      <trkpt lat="46.19361" lon="1.26306">
        <ele>312.57</ele>
        <time>2021-08-04T20:23:15Z</time>
      </trkpt>
      <trkpt lat="46.19227" lon="1.25788">
        <ele>311.6</ele>
        <time>2021-08-04T20:23:34Z</time>
      </trkpt>
      <trkpt lat="46.1915" lon="1.25439">
        <ele>306.8</ele>
        <time>2021-08-04T20:23:47Z</time>
      </trkpt>
      <trkpt lat="46.19151" lon="1.25411">
        <ele>306.8</ele>
        <time>2021-08-04T20:23:48Z</time>
      </trkpt>
      <trkpt lat="46.1917" lon="1.25095">
        <ele>301.51</ele>
        <time>2021-08-04T20:23:59Z</time>
      </trkpt>
      <trkpt lat="46.19211" lon="1.24515">
        <ele>300.55</ele>
        <time>2021-08-04T20:24:17Z</time>
      </trkpt>
      <trkpt lat="46.19245" lon="1.24048">
        <ele>313.05</ele>
        <time>2021-08-04T20:24:33Z</time>
      </trkpt>
      <trkpt lat="46.19243" lon="1.23884">
        <ele>314.01</ele>
        <time>2021-08-04T20:24:40Z</time>
      </trkpt>
      <trkpt lat="46.19216" lon="1.23705">
        <ele>314.97</ele>
        <time>2021-08-04T20:24:48Z</time>
      </trkpt>
      <trkpt lat="46.19139" lon="1.23501">
        <ele>317.37</ele>
        <time>2021-08-04T20:24:56Z</time>
      </trkpt>
      <trkpt lat="46.19011" lon="1.23309">
        <ele>323.62</ele>
        <time>2021-08-04T20:25:05Z</time>
      </trkpt>
      <trkpt lat="46.18899" lon="1.23123">
        <ele>326.02</ele>
        <time>2021-08-04T20:25:13Z</time>
      </trkpt>
      <trkpt lat="46.18762" lon="1.22761">
        <ele>331.31</ele>
        <time>2021-08-04T20:25:26Z</time>
      </trkpt>
      <trkpt lat="46.18664" lon="1.22632">
        <ele>331.79</ele>
        <time>2021-08-04T20:25:32Z</time>
      </trkpt>
      <trkpt lat="46.18444" lon="1.22415">
        <ele>334.68</ele>
        <time>2021-08-04T20:25:44Z</time>
      </trkpt>
      <trkpt lat="46.18428" lon="1.22393">
        <ele>334.2</ele>
        <time>2021-08-04T20:25:45Z</time>
      </trkpt>
      <trkpt lat="46.18414" lon="1.22369">
        <ele>334.2</ele>
        <time>2021-08-04T20:25:46Z</time>
      </trkpt>
      <trkpt lat="46.184" lon="1.22343">
        <ele>332.75</ele>
        <time>2021-08-04T20:25:47Z</time>
      </trkpt>
      <trkpt lat="46.18386" lon="1.22317">
        <ele>331.31</ele>
        <time>2021-08-04T20:25:48Z</time>
      </trkpt>
      <trkpt lat="46.18378" lon="1.22287">
        <ele>329.87</ele>
        <time>2021-08-04T20:25:49Z</time>
      </trkpt>
      <trkpt lat="46.18369" lon="1.22255">
        <ele>328.43</ele>
        <time>2021-08-04T20:25:50Z</time>
      </trkpt>
      <trkpt lat="46.1836" lon="1.22223">
        <ele>328.43</ele>
        <time>2021-08-04T20:25:51Z</time>
      </trkpt>
      <trkpt lat="46.18357" lon="1.22189">
        <ele>328.43</ele>
        <time>2021-08-04T20:25:52Z</time>
      </trkpt>
      <trkpt lat="46.18354" lon="1.22157">
        <ele>328.91</ele>
        <time>2021-08-04T20:25:53Z</time>
      </trkpt>
      <trkpt lat="46.18351" lon="1.22122">
        <ele>328.91</ele>
        <time>2021-08-04T20:25:54Z</time>
      </trkpt>
      <trkpt lat="46.1835" lon="1.22088">
        <ele>328.43</ele>
        <time>2021-08-04T20:25:55Z</time>
      </trkpt>
      <trkpt lat="46.1836" lon="1.21627">
        <ele>316.89</ele>
        <time>2021-08-04T20:26:09Z</time>
      </trkpt>
      <trkpt lat="46.1839" lon="1.21049">
        <ele>301.99</ele>
        <time>2021-08-04T20:26:27Z</time>
      </trkpt>
      <trkpt lat="46.18494" lon="1.2072">
        <ele>295.74</ele>
        <time>2021-08-04T20:26:38Z</time>
      </trkpt>
      <trkpt lat="46.1853" lon="1.20506">
        <ele>293.34</ele>
        <time>2021-08-04T20:26:45Z</time>
      </trkpt>
      <trkpt lat="46.18505" lon="1.20264">
        <ele>293.34</ele>
        <time>2021-08-04T20:26:53Z</time>
      </trkpt>
      <trkpt lat="46.18397" lon="1.19581">
        <ele>288.53</ele>
        <time>2021-08-04T20:27:15Z</time>
      </trkpt>
      <trkpt lat="46.18353" lon="1.19185">
        <ele>289.49</ele>
        <time>2021-08-04T20:27:28Z</time>
      </trkpt>
      <trkpt lat="46.1839" lon="1.18776">
        <ele>291.9</ele>
        <time>2021-08-04T20:27:41Z</time>
      </trkpt>
      <trkpt lat="46.18421" lon="1.18289">
        <ele>300.07</ele>
        <time>2021-08-04T20:27:56Z</time>
      </trkpt>
      <trkpt lat="46.18385" lon="1.18117">
        <ele>300.55</ele>
        <time>2021-08-04T20:28:03Z</time>
      </trkpt>
      <trkpt lat="46.18233" lon="1.17571">
        <ele>301.99</ele>
        <time>2021-08-04T20:28:22Z</time>
      </trkpt>
      <trkpt lat="46.18056" lon="1.16938">
        <ele>308.24</ele>
        <time>2021-08-04T20:28:44Z</time>
      </trkpt>
      <trkpt lat="46.17985" lon="1.16633">
        <ele>301.51</ele>
        <time>2021-08-04T20:28:54Z</time>
      </trkpt>
      <trkpt lat="46.1799" lon="1.16382">
        <ele>298.15</ele>
        <time>2021-08-04T20:29:02Z</time>
      </trkpt>
      <trkpt lat="46.17988" lon="1.16005">
        <ele>290.94</ele>
        <time>2021-08-04T20:29:14Z</time>
      </trkpt>
      <trkpt lat="46.17934" lon="1.15837">
        <ele>290.94</ele>
        <time>2021-08-04T20:29:20Z</time>
      </trkpt>
      <trkpt lat="46.17713" lon="1.15478">
        <ele>281.8</ele>
        <time>2021-08-04T20:29:35Z</time>
      </trkpt>
      <trkpt lat="46.17483" lon="1.15147">
        <ele>277</ele>
        <time>2021-08-04T20:29:50Z</time>
      </trkpt>
      <trkpt lat="46.17135" lon="1.1481">
        <ele>261.14</ele>
        <time>2021-08-04T20:30:09Z</time>
      </trkpt>
      <trkpt lat="46.16862" lon="1.1455">
        <ele>251.04</ele>
        <time>2021-08-04T20:30:25Z</time>
      </trkpt>
      <trkpt lat="46.16767" lon="1.14479">
        <ele>247.68</ele>
        <time>2021-08-04T20:30:33Z</time>
      </trkpt>
      <trkpt lat="46.1664" lon="1.14363">
        <ele>247.2</ele>
        <time>2021-08-04T20:30:45Z</time>
      </trkpt>
      <trkpt lat="46.1659" lon="1.14211">
        <ele>239.51</ele>
        <time>2021-08-04T20:30:54Z</time>
      </trkpt>
      <trkpt lat="46.16516" lon="1.13921">
        <ele>229.41</ele>
        <time>2021-08-04T20:31:09Z</time>
      </trkpt>
      <trkpt lat="46.16438" lon="1.13625">
        <ele>227.97</ele>
        <time>2021-08-04T20:31:19Z</time>
      </trkpt>
      <trkpt lat="46.16366" lon="1.13471">
        <ele>227.01</ele>
        <time>2021-08-04T20:31:26Z</time>
      </trkpt>
      <trkpt lat="46.16236" lon="1.13346">
        <ele>224.61</ele>
        <time>2021-08-04T20:31:33Z</time>
      </trkpt>
      <trkpt lat="46.16033" lon="1.13262">
        <ele>218.84</ele>
        <time>2021-08-04T20:31:42Z</time>
      </trkpt>
      <trkpt lat="46.15849" lon="1.13161">
        <ele>218.36</ele>
        <time>2021-08-04T20:31:51Z</time>
      </trkpt>
      <trkpt lat="46.15468" lon="1.12845">
        <ele>225.57</ele>
        <time>2021-08-04T20:32:11Z</time>
      </trkpt>
      <trkpt lat="46.15375" lon="1.12714">
        <ele>228.45</ele>
        <time>2021-08-04T20:32:17Z</time>
      </trkpt>
      <trkpt lat="46.15321" lon="1.12545">
        <ele>225.57</ele>
        <time>2021-08-04T20:32:23Z</time>
      </trkpt>
      <trkpt lat="46.15305" lon="1.12332">
        <ele>228.45</ele>
        <time>2021-08-04T20:32:30Z</time>
      </trkpt>
      <trkpt lat="46.1531" lon="1.1191">
        <ele>224.61</ele>
        <time>2021-08-04T20:32:43Z</time>
      </trkpt>
      <trkpt lat="46.15272" lon="1.11659">
        <ele>216.91</ele>
        <time>2021-08-04T20:32:51Z</time>
      </trkpt>
      <trkpt lat="46.1513" lon="1.1114">
        <ele>200.57</ele>
        <time>2021-08-04T20:33:09Z</time>
      </trkpt>
      <trkpt lat="46.1512" lon="1.11082">
        <ele>198.17</ele>
        <time>2021-08-04T20:33:11Z</time>
      </trkpt>
      <trkpt lat="46.15119" lon="1.11053">
        <ele>196.25</ele>
        <time>2021-08-04T20:33:12Z</time>
      </trkpt>
      <trkpt lat="46.151" lon="1.10783">
        <ele>189.52</ele>
        <time>2021-08-04T20:33:21Z</time>
      </trkpt>
      <trkpt lat="46.15021" lon="1.10556">
        <ele>192.4</ele>
        <time>2021-08-04T20:33:29Z</time>
      </trkpt>
      <trkpt lat="46.14964" lon="1.10467">
        <ele>195.77</ele>
        <time>2021-08-04T20:33:33Z</time>
      </trkpt>
      <trkpt lat="46.14837" lon="1.10383">
        <ele>201.53</ele>
        <time>2021-08-04T20:33:40Z</time>
      </trkpt>
      <trkpt lat="46.1456" lon="1.10241">
        <ele>212.59</ele>
        <time>2021-08-04T20:33:54Z</time>
      </trkpt>
      <trkpt lat="46.14426" lon="1.10089">
        <ele>214.03</ele>
        <time>2021-08-04T20:34:02Z</time>
      </trkpt>
      <trkpt lat="46.14235" lon="1.09879">
        <ele>218.36</ele>
        <time>2021-08-04T20:34:13Z</time>
      </trkpt>
      <trkpt lat="46.14091" lon="1.09826">
        <ele>223.16</ele>
        <time>2021-08-04T20:34:20Z</time>
      </trkpt>
      <trkpt lat="46.13853" lon="1.0979">
        <ele>231.81</ele>
        <time>2021-08-04T20:34:32Z</time>
      </trkpt>
      <trkpt lat="46.13735" lon="1.09706">
        <ele>238.06</ele>
        <time>2021-08-04T20:34:40Z</time>
      </trkpt>
      <trkpt lat="46.13645" lon="1.09573">
        <ele>241.91</ele>
        <time>2021-08-04T20:34:47Z</time>
      </trkpt>
      <trkpt lat="46.13507" lon="1.09269">
        <ele>248.16</ele>
        <time>2021-08-04T20:35:00Z</time>
      </trkpt>
      <trkpt lat="46.13328" lon="1.08871">
        <ele>253.44</ele>
        <time>2021-08-04T20:35:18Z</time>
      </trkpt>
      <trkpt lat="46.13158" lon="1.08497">
        <ele>260.17</ele>
        <time>2021-08-04T20:35:35Z</time>
      </trkpt>
      <trkpt lat="46.12962" lon="1.08062">
        <ele>260.17</ele>
        <time>2021-08-04T20:35:53Z</time>
      </trkpt>
      <trkpt lat="46.1281" lon="1.07723">
        <ele>258.73</ele>
        <time>2021-08-04T20:36:07Z</time>
      </trkpt>
      <trkpt lat="46.12737" lon="1.07605">
        <ele>259.21</ele>
        <time>2021-08-04T20:36:15Z</time>
      </trkpt>
      <trkpt lat="46.12684" lon="1.07546">
        <ele>259.21</ele>
        <time>2021-08-04T20:36:23Z</time>
      </trkpt>
      <trkpt lat="46.1268" lon="1.07542">
        <ele>259.21</ele>
        <time>2021-08-04T20:36:32Z</time>
      </trkpt>
      <trkpt lat="46.12647" lon="1.07506">
        <ele>260.17</ele>
        <time>2021-08-04T20:36:44Z</time>
      </trkpt>
      <trkpt lat="46.126" lon="1.07455">
        <ele>261.14</ele>
        <time>2021-08-04T20:36:57Z</time>
      </trkpt>
      <trkpt lat="46.12595" lon="1.0745">
        <ele>261.62</ele>
        <time>2021-08-04T20:37:00Z</time>
      </trkpt>
      <trkpt lat="46.12592" lon="1.07446">
        <ele>261.62</ele>
        <time>2021-08-04T20:37:01Z</time>
      </trkpt>
      <trkpt lat="46.12591" lon="1.07445">
        <ele>261.62</ele>
        <time>2021-08-04T20:37:02Z</time>
      </trkpt>
      <trkpt lat="46.12596" lon="1.07423">
        <ele>261.62</ele>
        <time>2021-08-04T20:37:04Z</time>
      </trkpt>
      <trkpt lat="46.12594" lon="1.07408">
        <ele>261.62</ele>
        <time>2021-08-04T20:37:05Z</time>
      </trkpt>
      <trkpt lat="46.12588" lon="1.07397">
        <ele>262.1</ele>
        <time>2021-08-04T20:37:06Z</time>
      </trkpt>
      <trkpt lat="46.12584" lon="1.07392">
        <ele>262.1</ele>
        <time>2021-08-04T20:37:07Z</time>
      </trkpt>
      <trkpt lat="46.12575" lon="1.07387">
        <ele>262.1</ele>
        <time>2021-08-04T20:37:08Z</time>
      </trkpt>
      <trkpt lat="46.12569" lon="1.07387">
        <ele>261.62</ele>
        <time>2021-08-04T20:37:09Z</time>
      </trkpt>
      <trkpt lat="46.12562" lon="1.0739">
        <ele>261.62</ele>
        <time>2021-08-04T20:37:10Z</time>
      </trkpt>
      <trkpt lat="46.12556" lon="1.07396">
        <ele>261.62</ele>
        <time>2021-08-04T20:37:11Z</time>
      </trkpt>
      <trkpt lat="46.1255" lon="1.07403">
        <ele>261.14</ele>
        <time>2021-08-04T20:37:12Z</time>
      </trkpt>
      <trkpt lat="46.12547" lon="1.07414">
        <ele>261.14</ele>
        <time>2021-08-04T20:37:13Z</time>
      </trkpt>
      <trkpt lat="46.12547" lon="1.07426">
        <ele>260.65</ele>
        <time>2021-08-04T20:37:14Z</time>
      </trkpt>
      <trkpt lat="46.1255" lon="1.07437">
        <ele>260.65</ele>
        <time>2021-08-04T20:37:15Z</time>
      </trkpt>
      <trkpt lat="46.12563" lon="1.07458">
        <ele>260.17</ele>
        <time>2021-08-04T20:37:16Z</time>
      </trkpt>
      <trkpt lat="46.12571" lon="1.07458">
        <ele>259.21</ele>
        <time>2021-08-04T20:37:17Z</time>
      </trkpt>
      <trkpt lat="46.1258" lon="1.07454">
        <ele>258.25</ele>
        <time>2021-08-04T20:37:18Z</time>
      </trkpt>
      <trkpt lat="46.1258" lon="1.07454">
        <ele>257.77</ele>
        <time>2021-08-04T20:37:19Z</time>
      </trkpt>
      <trkpt lat="46.12593" lon="1.07437">
        <ele>257.29</ele>
        <time>2021-08-04T20:37:20Z</time>
      </trkpt>
      <trkpt lat="46.12595" lon="1.07426">
        <ele>256.81</ele>
        <time>2021-08-04T20:37:21Z</time>
      </trkpt>
      <trkpt lat="46.12595" lon="1.07426">
        <ele>256.81</ele>
        <time>2021-08-04T20:37:22Z</time>
      </trkpt>
      <trkpt lat="46.12597" lon="1.07419">
        <ele>256.33</ele>
        <time>2021-08-04T20:37:23Z</time>
      </trkpt>
      <trkpt lat="46.12597" lon="1.07397">
        <ele>255.37</ele>
        <time>2021-08-04T20:37:24Z</time>
      </trkpt>
      <trkpt lat="46.12605" lon="1.07389">
        <ele>254.89</ele>
        <time>2021-08-04T20:37:25Z</time>
      </trkpt>
      <trkpt lat="46.12615" lon="1.07379">
        <ele>253.44</ele>
        <time>2021-08-04T20:37:26Z</time>
      </trkpt>
      <trkpt lat="46.12736" lon="1.07247">
        <ele>248.16</ele>
        <time>2021-08-04T20:37:37Z</time>
      </trkpt>
      <trkpt lat="46.12886" lon="1.07101">
        <ele>250.56</ele>
        <time>2021-08-04T20:37:47Z</time>
      </trkpt>
      <trkpt lat="46.13148" lon="1.06904">
        <ele>248.16</ele>
        <time>2021-08-04T20:38:01Z</time>
      </trkpt>
      <trkpt lat="46.13339" lon="1.06721">
        <ele>244.79</ele>
        <time>2021-08-04T20:38:11Z</time>
      </trkpt>
      <trkpt lat="46.13514" lon="1.0647">
        <ele>245.27</ele>
        <time>2021-08-04T20:38:22Z</time>
      </trkpt>
      <trkpt lat="46.13645" lon="1.06175">
        <ele>245.27</ele>
        <time>2021-08-04T20:38:33Z</time>
      </trkpt>
      <trkpt lat="46.13764" lon="1.05855">
        <ele>249.6</ele>
        <time>2021-08-04T20:38:45Z</time>
      </trkpt>
      <trkpt lat="46.13809" lon="1.05731">
        <ele>252.96</ele>
        <time>2021-08-04T20:38:53Z</time>
      </trkpt>
      <trkpt lat="46.13834" lon="1.05662">
        <ele>255.37</ele>
        <time>2021-08-04T20:39:01Z</time>
      </trkpt>
      <trkpt lat="46.13841" lon="1.05646">
        <ele>255.85</ele>
        <time>2021-08-04T20:39:06Z</time>
      </trkpt>
      <trkpt lat="46.13844" lon="1.0564">
        <ele>255.85</ele>
        <time>2021-08-04T20:39:07Z</time>
      </trkpt>
      <trkpt lat="46.13847" lon="1.05634">
        <ele>255.85</ele>
        <time>2021-08-04T20:39:08Z</time>
      </trkpt>
      <trkpt lat="46.13859" lon="1.05626">
        <ele>254.89</ele>
        <time>2021-08-04T20:39:10Z</time>
      </trkpt>
      <trkpt lat="46.13864" lon="1.05624">
        <ele>253.93</ele>
        <time>2021-08-04T20:39:11Z</time>
      </trkpt>
      <trkpt lat="46.13865" lon="1.05609">
        <ele>253.93</ele>
        <time>2021-08-04T20:39:12Z</time>
      </trkpt>
      <trkpt lat="46.13865" lon="1.056">
        <ele>253.44</ele>
        <time>2021-08-04T20:39:13Z</time>
      </trkpt>
      <trkpt lat="46.13863" lon="1.05594">
        <ele>253.44</ele>
        <time>2021-08-04T20:39:14Z</time>
      </trkpt>
      <trkpt lat="46.1386" lon="1.05589">
        <ele>253.44</ele>
        <time>2021-08-04T20:39:15Z</time>
      </trkpt>
      <trkpt lat="46.13859" lon="1.05587">
        <ele>253.44</ele>
        <time>2021-08-04T20:39:16Z</time>
      </trkpt>
      <trkpt lat="46.13846" lon="1.05569">
        <ele>253.44</ele>
        <time>2021-08-04T20:39:17Z</time>
      </trkpt>
      <trkpt lat="46.13846" lon="1.05569">
        <ele>253.44</ele>
        <time>2021-08-04T20:39:18Z</time>
      </trkpt>
      <trkpt lat="46.13843" lon="1.05558">
        <ele>253.93</ele>
        <time>2021-08-04T20:39:19Z</time>
      </trkpt>
      <trkpt lat="46.1384" lon="1.05544">
        <ele>253.44</ele>
        <time>2021-08-04T20:39:20Z</time>
      </trkpt>
      <trkpt lat="46.13804" lon="1.05375">
        <ele>252</ele>
        <time>2021-08-04T20:39:28Z</time>
      </trkpt>
      <trkpt lat="46.13752" lon="1.05125">
        <ele>252.48</ele>
        <time>2021-08-04T20:39:39Z</time>
      </trkpt>
      <trkpt lat="46.1366" lon="1.04727">
        <ele>252</ele>
        <time>2021-08-04T20:39:53Z</time>
      </trkpt>
      <trkpt lat="46.13543" lon="1.04432">
        <ele>246.72</ele>
        <time>2021-08-04T20:40:04Z</time>
      </trkpt>
      <trkpt lat="46.13295" lon="1.0398">
        <ele>232.3</ele>
        <time>2021-08-04T20:40:21Z</time>
      </trkpt>
      <trkpt lat="46.13072" lon="1.03616">
        <ele>215.95</ele>
        <time>2021-08-04T20:40:37Z</time>
      </trkpt>
      <trkpt lat="46.12909" lon="1.03361">
        <ele>205.86</ele>
        <time>2021-08-04T20:40:48Z</time>
      </trkpt>
      <trkpt lat="46.12839" lon="1.03128">
        <ele>197.21</ele>
        <time>2021-08-04T20:40:56Z</time>
      </trkpt>
      <trkpt lat="46.12819" lon="1.02878">
        <ele>189.04</ele>
        <time>2021-08-04T20:41:04Z</time>
      </trkpt>
      <trkpt lat="46.12852" lon="1.02589">
        <ele>185.19</ele>
        <time>2021-08-04T20:41:13Z</time>
      </trkpt>
      <trkpt lat="46.12914" lon="1.02153">
        <ele>195.77</ele>
        <time>2021-08-04T20:41:28Z</time>
      </trkpt>
      <trkpt lat="46.12938" lon="1.0185">
        <ele>200.57</ele>
        <time>2021-08-04T20:41:38Z</time>
      </trkpt>
      <trkpt lat="46.1291" lon="1.0156">
        <ele>199.61</ele>
        <time>2021-08-04T20:41:47Z</time>
      </trkpt>
      <trkpt lat="46.12839" lon="1.01168">
        <ele>192.4</ele>
        <time>2021-08-04T20:41:59Z</time>
      </trkpt>
      <trkpt lat="46.12753" lon="1.0069">
        <ele>206.82</ele>
        <time>2021-08-04T20:42:12Z</time>
      </trkpt>
      <trkpt lat="46.12715" lon="1.00362">
        <ele>223.64</ele>
        <time>2021-08-04T20:42:22Z</time>
      </trkpt>
      <trkpt lat="46.12727" lon="1.00017">
        <ele>236.62</ele>
        <time>2021-08-04T20:42:33Z</time>
      </trkpt>
      <trkpt lat="46.12772" lon="0.99719">
        <ele>246.72</ele>
        <time>2021-08-04T20:42:43Z</time>
      </trkpt>
      <trkpt lat="46.12833" lon="0.99416">
        <ele>251.52</ele>
        <time>2021-08-04T20:42:55Z</time>
      </trkpt>
      <trkpt lat="46.12859" lon="0.99295">
        <ele>253.44</ele>
        <time>2021-08-04T20:43:02Z</time>
      </trkpt>
      <trkpt lat="46.12894" lon="0.99203">
        <ele>253.93</ele>
        <time>2021-08-04T20:43:13Z</time>
      </trkpt>
      <trkpt lat="46.12936" lon="0.99126">
        <ele>256.33</ele>
        <time>2021-08-04T20:43:24Z</time>
      </trkpt>
      <trkpt lat="46.12941" lon="0.99119">
        <ele>256.33</ele>
        <time>2021-08-04T20:43:25Z</time>
      </trkpt>
      <trkpt lat="46.12946" lon="0.99112">
        <ele>256.33</ele>
        <time>2021-08-04T20:43:26Z</time>
      </trkpt>
      <trkpt lat="46.12969" lon="0.99113">
        <ele>255.85</ele>
        <time>2021-08-04T20:43:29Z</time>
      </trkpt>
      <trkpt lat="46.12977" lon="0.99107">
        <ele>254.89</ele>
        <time>2021-08-04T20:43:30Z</time>
      </trkpt>
      <trkpt lat="46.12981" lon="0.99101">
        <ele>254.89</ele>
        <time>2021-08-04T20:43:31Z</time>
      </trkpt>
      <trkpt lat="46.12981" lon="0.99089">
        <ele>254.89</ele>
        <time>2021-08-04T20:43:32Z</time>
      </trkpt>
      <trkpt lat="46.12981" lon="0.99079">
        <ele>254.41</ele>
        <time>2021-08-04T20:43:33Z</time>
      </trkpt>
      <trkpt lat="46.12979" lon="0.99071">
        <ele>253.93</ele>
        <time>2021-08-04T20:43:34Z</time>
      </trkpt>
      <trkpt lat="46.12974" lon="0.99065">
        <ele>253.93</ele>
        <time>2021-08-04T20:43:35Z</time>
      </trkpt>
      <trkpt lat="46.1297" lon="0.99062">
        <ele>253.93</ele>
        <time>2021-08-04T20:43:36Z</time>
      </trkpt>
      <trkpt lat="46.12957" lon="0.99054">
        <ele>253.93</ele>
        <time>2021-08-04T20:43:37Z</time>
      </trkpt>
      <trkpt lat="46.12954" lon="0.99043">
        <ele>254.41</ele>
        <time>2021-08-04T20:43:38Z</time>
      </trkpt>
      <trkpt lat="46.1295" lon="0.9903">
        <ele>255.37</ele>
        <time>2021-08-04T20:43:39Z</time>
      </trkpt>
      <trkpt lat="46.12946" lon="0.99015">
        <ele>255.85</ele>
        <time>2021-08-04T20:43:40Z</time>
      </trkpt>
      <trkpt lat="46.12892" lon="0.98831">
        <ele>259.69</ele>
        <time>2021-08-04T20:43:51Z</time>
      </trkpt>
      <trkpt lat="46.12825" lon="0.98597">
        <ele>260.65</ele>
        <time>2021-08-04T20:44:02Z</time>
      </trkpt>
      <trkpt lat="46.12733" lon="0.98274">
        <ele>259.69</ele>
        <time>2021-08-04T20:44:14Z</time>
      </trkpt>
      <trkpt lat="46.126" lon="0.97808">
        <ele>252</ele>
        <time>2021-08-04T20:44:31Z</time>
      </trkpt>
      <trkpt lat="46.12473" lon="0.97365">
        <ele>251.52</ele>
        <time>2021-08-04T20:44:46Z</time>
      </trkpt>
      <trkpt lat="46.12348" lon="0.96927">
        <ele>262.1</ele>
        <time>2021-08-04T20:45:02Z</time>
      </trkpt>
      <trkpt lat="46.1215" lon="0.96238">
        <ele>262.1</ele>
        <time>2021-08-04T20:45:26Z</time>
      </trkpt>
      <trkpt lat="46.11983" lon="0.95659">
        <ele>258.25</ele>
        <time>2021-08-04T20:45:47Z</time>
      </trkpt>
      <trkpt lat="46.11815" lon="0.95083">
        <ele>243.35</ele>
        <time>2021-08-04T20:46:07Z</time>
      </trkpt>
      <trkpt lat="46.11672" lon="0.94583">
        <ele>248.16</ele>
        <time>2021-08-04T20:46:24Z</time>
      </trkpt>
      <trkpt lat="46.11569" lon="0.94219">
        <ele>252</ele>
        <time>2021-08-04T20:46:37Z</time>
      </trkpt>
      <trkpt lat="46.11477" lon="0.93906">
        <ele>258.73</ele>
        <time>2021-08-04T20:46:48Z</time>
      </trkpt>
      <trkpt lat="46.11335" lon="0.93401">
        <ele>250.08</ele>
        <time>2021-08-04T20:47:05Z</time>
      </trkpt>
      <trkpt lat="46.11185" lon="0.92879">
        <ele>243.83</ele>
        <time>2021-08-04T20:47:22Z</time>
      </trkpt>
      <trkpt lat="46.11149" lon="0.92747">
        <ele>244.31</ele>
        <time>2021-08-04T20:47:29Z</time>
      </trkpt>
      <trkpt lat="46.11136" lon="0.92681">
        <ele>245.75</ele>
        <time>2021-08-04T20:47:33Z</time>
      </trkpt>
      <trkpt lat="46.11138" lon="0.92658">
        <ele>245.27</ele>
        <time>2021-08-04T20:47:34Z</time>
      </trkpt>
      <trkpt lat="46.11138" lon="0.92658">
        <ele>243.83</ele>
        <time>2021-08-04T20:47:35Z</time>
      </trkpt>
      <trkpt lat="46.11145" lon="0.92618">
        <ele>242.87</ele>
        <time>2021-08-04T20:47:37Z</time>
      </trkpt>
      <trkpt lat="46.11142" lon="0.92603">
        <ele>242.39</ele>
        <time>2021-08-04T20:47:38Z</time>
      </trkpt>
      <trkpt lat="46.11142" lon="0.92603">
        <ele>242.39</ele>
        <time>2021-08-04T20:47:39Z</time>
      </trkpt>
      <trkpt lat="46.11144" lon="0.92588">
        <ele>242.39</ele>
        <time>2021-08-04T20:47:40Z</time>
      </trkpt>
      <trkpt lat="46.1115" lon="0.92575">
        <ele>242.39</ele>
        <time>2021-08-04T20:47:41Z</time>
      </trkpt>
      <trkpt lat="46.11156" lon="0.9256">
        <ele>242.87</ele>
        <time>2021-08-04T20:47:42Z</time>
      </trkpt>
      <trkpt lat="46.11242" lon="0.92408">
        <ele>241.43</ele>
        <time>2021-08-04T20:47:51Z</time>
      </trkpt>
      <trkpt lat="46.11386" lon="0.92161">
        <ele>239.51</ele>
        <time>2021-08-04T20:48:01Z</time>
      </trkpt>
      <trkpt lat="46.11555" lon="0.91844">
        <ele>236.62</ele>
        <time>2021-08-04T20:48:15Z</time>
      </trkpt>
      <trkpt lat="46.11636" lon="0.91569">
        <ele>232.78</ele>
        <time>2021-08-04T20:48:24Z</time>
      </trkpt>
      <trkpt lat="46.11672" lon="0.9127">
        <ele>229.89</ele>
        <time>2021-08-04T20:48:33Z</time>
      </trkpt>
      <trkpt lat="46.11689" lon="0.90841">
        <ele>224.61</ele>
        <time>2021-08-04T20:48:47Z</time>
      </trkpt>
      <trkpt lat="46.11657" lon="0.90531">
        <ele>213.07</ele>
        <time>2021-08-04T20:48:57Z</time>
      </trkpt>
      <trkpt lat="46.11577" lon="0.90259">
        <ele>208.26</ele>
        <time>2021-08-04T20:49:06Z</time>
      </trkpt>
      <trkpt lat="46.11456" lon="0.90024">
        <ele>210.67</ele>
        <time>2021-08-04T20:49:15Z</time>
      </trkpt>
      <trkpt lat="46.11262" lon="0.89774">
        <ele>211.15</ele>
        <time>2021-08-04T20:49:27Z</time>
      </trkpt>
      <trkpt lat="46.10988" lon="0.89436">
        <ele>203.94</ele>
        <time>2021-08-04T20:49:44Z</time>
      </trkpt>
      <trkpt lat="46.10937" lon="0.89375">
        <ele>204.42</ele>
        <time>2021-08-04T20:49:50Z</time>
      </trkpt>
      <trkpt lat="46.10936" lon="0.89373">
        <ele>204.42</ele>
        <time>2021-08-04T20:49:51Z</time>
      </trkpt>
      <trkpt lat="46.10936" lon="0.89373">
        <ele>204.9</ele>
        <time>2021-08-04T20:49:52Z</time>
      </trkpt>
      <trkpt lat="46.10941" lon="0.89346">
        <ele>204.9</ele>
        <time>2021-08-04T20:49:53Z</time>
      </trkpt>
      <trkpt lat="46.10938" lon="0.89336">
        <ele>204.42</ele>
        <time>2021-08-04T20:49:54Z</time>
      </trkpt>
      <trkpt lat="46.10929" lon="0.89325">
        <ele>203.94</ele>
        <time>2021-08-04T20:49:55Z</time>
      </trkpt>
      <trkpt lat="46.10923" lon="0.89322">
        <ele>203.46</ele>
        <time>2021-08-04T20:49:56Z</time>
      </trkpt>
      <trkpt lat="46.10908" lon="0.89322">
        <ele>202.49</ele>
        <time>2021-08-04T20:49:57Z</time>
      </trkpt>
      <trkpt lat="46.10903" lon="0.89312">
        <ele>202.49</ele>
        <time>2021-08-04T20:49:58Z</time>
      </trkpt>
      <trkpt lat="46.10898" lon="0.893">
        <ele>202.49</ele>
        <time>2021-08-04T20:49:59Z</time>
      </trkpt>
      <trkpt lat="46.10893" lon="0.89288">
        <ele>201.53</ele>
        <time>2021-08-04T20:50:00Z</time>
      </trkpt>
      <trkpt lat="46.10887" lon="0.89275">
        <ele>200.57</ele>
        <time>2021-08-04T20:50:01Z</time>
      </trkpt>
      <trkpt lat="46.10826" lon="0.89113">
        <ele>191.92</ele>
        <time>2021-08-04T20:50:11Z</time>
      </trkpt>
      <trkpt lat="46.10753" lon="0.88865">
        <ele>200.09</ele>
        <time>2021-08-04T20:50:23Z</time>
      </trkpt>
      <trkpt lat="46.10636" lon="0.88467">
        <ele>220.28</ele>
        <time>2021-08-04T20:50:40Z</time>
      </trkpt>
      <trkpt lat="46.10542" lon="0.8815">
        <ele>220.76</ele>
        <time>2021-08-04T20:50:53Z</time>
      </trkpt>
      <trkpt lat="46.10448" lon="0.87826">
        <ele>209.7</ele>
        <time>2021-08-04T20:51:05Z</time>
      </trkpt>
      <trkpt lat="46.10382" lon="0.87599">
        <ele>206.34</ele>
        <time>2021-08-04T20:51:13Z</time>
      </trkpt>
      <trkpt lat="46.1028" lon="0.87253">
        <ele>215.47</ele>
        <time>2021-08-04T20:51:27Z</time>
      </trkpt>
      <trkpt lat="46.10178" lon="0.86913">
        <ele>223.64</ele>
        <time>2021-08-04T20:51:41Z</time>
      </trkpt>
      <trkpt lat="46.10068" lon="0.86539">
        <ele>221.72</ele>
        <time>2021-08-04T20:51:55Z</time>
      </trkpt>
      <trkpt lat="46.09976" lon="0.86229">
        <ele>225.57</ele>
        <time>2021-08-04T20:52:06Z</time>
      </trkpt>
      <trkpt lat="46.09871" lon="0.85875">
        <ele>222.2</ele>
        <time>2021-08-04T20:52:18Z</time>
      </trkpt>
      <trkpt lat="46.09737" lon="0.85432">
        <ele>223.16</ele>
        <time>2021-08-04T20:52:33Z</time>
      </trkpt>
      <trkpt lat="46.09626" lon="0.85041">
        <ele>221.72</ele>
        <time>2021-08-04T20:52:45Z</time>
      </trkpt>
      <trkpt lat="46.09491" lon="0.84582">
        <ele>224.12</ele>
        <time>2021-08-04T20:53:01Z</time>
      </trkpt>
      <trkpt lat="46.09394" lon="0.84289">
        <ele>227.97</ele>
        <time>2021-08-04T20:53:11Z</time>
      </trkpt>
      <trkpt lat="46.09321" lon="0.84109">
        <ele>230.37</ele>
        <time>2021-08-04T20:53:21Z</time>
      </trkpt>
      <trkpt lat="46.09239" lon="0.83908">
        <ele>232.78</ele>
        <time>2021-08-04T20:53:34Z</time>
      </trkpt>
      <trkpt lat="46.09142" lon="0.83668">
        <ele>235.66</ele>
        <time>2021-08-04T20:53:50Z</time>
      </trkpt>
      <trkpt lat="46.09039" lon="0.83415">
        <ele>235.66</ele>
        <time>2021-08-04T20:54:05Z</time>
      </trkpt>
      <trkpt lat="46.08947" lon="0.83188">
        <ele>234.22</ele>
        <time>2021-08-04T20:54:16Z</time>
      </trkpt>
      <trkpt lat="46.08845" lon="0.82937">
        <ele>230.85</ele>
        <time>2021-08-04T20:54:26Z</time>
      </trkpt>
      <trkpt lat="46.08693" lon="0.82564">
        <ele>229.41</ele>
        <time>2021-08-04T20:54:40Z</time>
      </trkpt>
      <trkpt lat="46.08529" lon="0.82161">
        <ele>225.57</ele>
        <time>2021-08-04T20:54:54Z</time>
      </trkpt>
      <trkpt lat="46.08327" lon="0.81659">
        <ele>232.3</ele>
        <time>2021-08-04T20:55:14Z</time>
      </trkpt>
      <trkpt lat="46.08152" lon="0.8123">
        <ele>228.45</ele>
        <time>2021-08-04T20:55:30Z</time>
      </trkpt>
      <trkpt lat="46.08066" lon="0.80963">
        <ele>224.61</ele>
        <time>2021-08-04T20:55:39Z</time>
      </trkpt>
      <trkpt lat="46.07886" lon="0.80316">
        <ele>218.84</ele>
        <time>2021-08-04T20:56:01Z</time>
      </trkpt>
      <trkpt lat="46.07774" lon="0.79861">
        <ele>218.36</ele>
        <time>2021-08-04T20:56:17Z</time>
      </trkpt>
      <trkpt lat="46.07767" lon="0.79621">
        <ele>216.91</ele>
        <time>2021-08-04T20:56:26Z</time>
      </trkpt>
      <trkpt lat="46.07794" lon="0.79098">
        <ele>219.8</ele>
        <time>2021-08-04T20:56:45Z</time>
      </trkpt>
      <trkpt lat="46.07815" lon="0.78687">
        <ele>220.28</ele>
        <time>2021-08-04T20:57:00Z</time>
      </trkpt>
      <trkpt lat="46.07827" lon="0.78435">
        <ele>222.68</ele>
        <time>2021-08-04T20:57:09Z</time>
      </trkpt>
      <trkpt lat="46.07849" lon="0.78019">
        <ele>225.09</ele>
        <time>2021-08-04T20:57:22Z</time>
      </trkpt>
      <trkpt lat="46.07863" lon="0.77744">
        <ele>226.53</ele>
        <time>2021-08-04T20:57:31Z</time>
      </trkpt>
      <trkpt lat="46.07878" lon="0.77457">
        <ele>224.61</ele>
        <time>2021-08-04T20:57:42Z</time>
      </trkpt>
      <trkpt lat="46.07897" lon="0.77076">
        <ele>225.57</ele>
        <time>2021-08-04T20:57:54Z</time>
      </trkpt>
      <trkpt lat="46.07912" lon="0.76708">
        <ele>226.53</ele>
        <time>2021-08-04T20:58:08Z</time>
      </trkpt>
      <trkpt lat="46.07922" lon="0.76418">
        <ele>229.89</ele>
        <time>2021-08-04T20:58:19Z</time>
      </trkpt>
      <trkpt lat="46.07931" lon="0.76127">
        <ele>225.57</ele>
        <time>2021-08-04T20:58:32Z</time>
      </trkpt>
      <trkpt lat="46.07944" lon="0.75779">
        <ele>229.89</ele>
        <time>2021-08-04T20:58:46Z</time>
      </trkpt>
      <trkpt lat="46.07939" lon="0.75567">
        <ele>236.14</ele>
        <time>2021-08-04T20:58:55Z</time>
      </trkpt>
      <trkpt lat="46.07886" lon="0.75364">
        <ele>233.26</ele>
        <time>2021-08-04T20:59:05Z</time>
      </trkpt>
      <trkpt lat="46.07787" lon="0.75021">
        <ele>228.93</ele>
        <time>2021-08-04T20:59:20Z</time>
      </trkpt>
      <trkpt lat="46.07667" lon="0.74601">
        <ele>229.41</ele>
        <time>2021-08-04T20:59:37Z</time>
      </trkpt>
      <trkpt lat="46.07555" lon="0.74221">
        <ele>230.85</ele>
        <time>2021-08-04T20:59:52Z</time>
      </trkpt>
      <trkpt lat="46.07468" lon="0.73936">
        <ele>224.61</ele>
        <time>2021-08-04T21:00:03Z</time>
      </trkpt>
      <trkpt lat="46.07367" lon="0.73605">
        <ele>222.2</ele>
        <time>2021-08-04T21:00:14Z</time>
      </trkpt>
      <trkpt lat="46.07228" lon="0.73156">
        <ele>222.2</ele>
        <time>2021-08-04T21:00:30Z</time>
      </trkpt>
      <trkpt lat="46.0709" lon="0.72702">
        <ele>218.84</ele>
        <time>2021-08-04T21:00:46Z</time>
      </trkpt>
      <trkpt lat="46.07036" lon="0.7253">
        <ele>219.8</ele>
        <time>2021-08-04T21:00:53Z</time>
      </trkpt>
      <trkpt lat="46.06978" lon="0.7235">
        <ele>216.91</ele>
        <time>2021-08-04T21:01:03Z</time>
      </trkpt>
      <trkpt lat="46.06918" lon="0.72188">
        <ele>210.19</ele>
        <time>2021-08-04T21:01:10Z</time>
      </trkpt>
      <trkpt lat="46.06805" lon="0.71922">
        <ele>207.3</ele>
        <time>2021-08-04T21:01:19Z</time>
      </trkpt>
      <trkpt lat="46.0667" lon="0.71617">
        <ele>212.59</ele>
        <time>2021-08-04T21:01:29Z</time>
      </trkpt>
      <trkpt lat="46.06518" lon="0.71262">
        <ele>213.55</ele>
        <time>2021-08-04T21:01:40Z</time>
      </trkpt>
      <trkpt lat="46.06314" lon="0.70803">
        <ele>213.07</ele>
        <time>2021-08-04T21:01:56Z</time>
      </trkpt>
      <trkpt lat="46.06239" lon="0.70605">
        <ele>213.07</ele>
        <time>2021-08-04T21:02:03Z</time>
      </trkpt>
      <trkpt lat="46.06232" lon="0.70575">
        <ele>212.11</ele>
        <time>2021-08-04T21:02:04Z</time>
      </trkpt>
      <trkpt lat="46.06206" lon="0.70209">
        <ele>203.94</ele>
        <time>2021-08-04T21:02:16Z</time>
      </trkpt>
      <trkpt lat="46.06197" lon="0.70059">
        <ele>197.69</ele>
        <time>2021-08-04T21:02:22Z</time>
      </trkpt>
      <trkpt lat="46.06195" lon="0.69872">
        <ele>188.08</ele>
        <time>2021-08-04T21:02:30Z</time>
      </trkpt>
      <trkpt lat="46.06255" lon="0.69577">
        <ele>178.46</ele>
        <time>2021-08-04T21:02:42Z</time>
      </trkpt>
      <trkpt lat="46.06329" lon="0.69226">
        <ele>171.73</ele>
        <time>2021-08-04T21:02:57Z</time>
      </trkpt>
      <trkpt lat="46.06414" lon="0.68939">
        <ele>158.27</ele>
        <time>2021-08-04T21:03:08Z</time>
      </trkpt>
      <trkpt lat="46.06502" lon="0.68614">
        <ele>143.85</ele>
        <time>2021-08-04T21:03:19Z</time>
      </trkpt>
      <trkpt lat="46.06528" lon="0.683">
        <ele>133.28</ele>
        <time>2021-08-04T21:03:29Z</time>
      </trkpt>
      <trkpt lat="46.06552" lon="0.67809">
        <ele>140.01</ele>
        <time>2021-08-04T21:03:45Z</time>
      </trkpt>
      <trkpt lat="46.06542" lon="0.67635">
        <ele>146.26</ele>
        <time>2021-08-04T21:03:51Z</time>
      </trkpt>
      <trkpt lat="46.06494" lon="0.67398">
        <ele>156.35</ele>
        <time>2021-08-04T21:04:01Z</time>
      </trkpt>
      <trkpt lat="46.06423" lon="0.67189">
        <ele>169.33</ele>
        <time>2021-08-04T21:04:11Z</time>
      </trkpt>
      <trkpt lat="46.06298" lon="0.66963">
        <ele>174.62</ele>
        <time>2021-08-04T21:04:21Z</time>
      </trkpt>
      <trkpt lat="46.06109" lon="0.66768">
        <ele>180.87</ele>
        <time>2021-08-04T21:04:32Z</time>
      </trkpt>
      <trkpt lat="46.05957" lon="0.66672">
        <ele>174.14</ele>
        <time>2021-08-04T21:04:39Z</time>
      </trkpt>
      <trkpt lat="46.05751" lon="0.66614">
        <ele>168.85</ele>
        <time>2021-08-04T21:04:47Z</time>
      </trkpt>
      <trkpt lat="46.05572" lon="0.66627">
        <ele>167.89</ele>
        <time>2021-08-04T21:04:56Z</time>
      </trkpt>
      <trkpt lat="46.05155" lon="0.66709">
        <ele>157.79</ele>
        <time>2021-08-04T21:05:15Z</time>
      </trkpt>
      <trkpt lat="46.04934" lon="0.66724">
        <ele>149.62</ele>
        <time>2021-08-04T21:05:25Z</time>
      </trkpt>
      <trkpt lat="46.04761" lon="0.66659">
        <ele>152.03</ele>
        <time>2021-08-04T21:05:33Z</time>
      </trkpt>
      <trkpt lat="46.04623" lon="0.66534">
        <ele>159.72</ele>
        <time>2021-08-04T21:05:41Z</time>
      </trkpt>
      <trkpt lat="46.04309" lon="0.6616">
        <ele>162.6</ele>
        <time>2021-08-04T21:05:59Z</time>
      </trkpt>
      <trkpt lat="46.04089" lon="0.65926">
        <ele>155.39</ele>
        <time>2021-08-04T21:06:12Z</time>
      </trkpt>
      <trkpt lat="46.03939" lon="0.6586">
        <ele>154.91</ele>
        <time>2021-08-04T21:06:19Z</time>
      </trkpt>
      <trkpt lat="46.03717" lon="0.65862">
        <ele>156.35</ele>
        <time>2021-08-04T21:06:28Z</time>
      </trkpt>
      <trkpt lat="46.03418" lon="0.65874">
        <ele>169.81</ele>
        <time>2021-08-04T21:06:43Z</time>
      </trkpt>
      <trkpt lat="46.03024" lon="0.65876">
        <ele>185.67</ele>
        <time>2021-08-04T21:07:02Z</time>
      </trkpt>
      <trkpt lat="46.02841" lon="0.6582">
        <ele>186.15</ele>
        <time>2021-08-04T21:07:11Z</time>
      </trkpt>
      <trkpt lat="46.02664" lon="0.65708">
        <ele>186.63</ele>
        <time>2021-08-04T21:07:20Z</time>
      </trkpt>
      <trkpt lat="46.02469" lon="0.65502">
        <ele>187.11</ele>
        <time>2021-08-04T21:07:31Z</time>
      </trkpt>
      <trkpt lat="46.02207" lon="0.65198">
        <ele>185.19</ele>
        <time>2021-08-04T21:07:46Z</time>
      </trkpt>
      <trkpt lat="46.01932" lon="0.64886">
        <ele>174.62</ele>
        <time>2021-08-04T21:08:01Z</time>
      </trkpt>
      <trkpt lat="46.01721" lon="0.64682">
        <ele>162.6</ele>
        <time>2021-08-04T21:08:12Z</time>
      </trkpt>
      <trkpt lat="46.01486" lon="0.64527">
        <ele>152.99</ele>
        <time>2021-08-04T21:08:23Z</time>
      </trkpt>
      <trkpt lat="46.01165" lon="0.64351">
        <ele>165</ele>
        <time>2021-08-04T21:08:38Z</time>
      </trkpt>
      <trkpt lat="46.00827" lon="0.64147">
        <ele>177.98</ele>
        <time>2021-08-04T21:08:54Z</time>
      </trkpt>
      <trkpt lat="46.00642" lon="0.63952">
        <ele>176.54</ele>
        <time>2021-08-04T21:09:04Z</time>
      </trkpt>
      <trkpt lat="46.00352" lon="0.63644">
        <ele>160.68</ele>
        <time>2021-08-04T21:09:20Z</time>
      </trkpt>
      <trkpt lat="46.00077" lon="0.63417">
        <ele>159.72</ele>
        <time>2021-08-04T21:09:34Z</time>
      </trkpt>
      <trkpt lat="45.998" lon="0.63201">
        <ele>175.58</ele>
        <time>2021-08-04T21:09:49Z</time>
      </trkpt>
      <trkpt lat="45.99441" lon="0.62917">
        <ele>193.36</ele>
        <time>2021-08-04T21:10:08Z</time>
      </trkpt>
      <trkpt lat="45.99182" lon="0.62689">
        <ele>201.05</ele>
        <time>2021-08-04T21:10:22Z</time>
      </trkpt>
      <trkpt lat="45.99065" lon="0.62494">
        <ele>208.26</ele>
        <time>2021-08-04T21:10:30Z</time>
      </trkpt>
      <trkpt lat="45.98985" lon="0.62267">
        <ele>207.78</ele>
        <time>2021-08-04T21:10:38Z</time>
      </trkpt>
      <trkpt lat="45.98934" lon="0.61932">
        <ele>209.22</ele>
        <time>2021-08-04T21:10:49Z</time>
      </trkpt>
      <trkpt lat="45.98847" lon="0.61257">
        <ele>212.11</ele>
        <time>2021-08-04T21:11:11Z</time>
      </trkpt>
      <trkpt lat="45.98787" lon="0.61019">
        <ele>213.55</ele>
        <time>2021-08-04T21:11:19Z</time>
      </trkpt>
      <trkpt lat="45.98653" lon="0.6075">
        <ele>214.99</ele>
        <time>2021-08-04T21:11:29Z</time>
      </trkpt>
      <trkpt lat="45.98435" lon="0.60434">
        <ele>215.47</ele>
        <time>2021-08-04T21:11:42Z</time>
      </trkpt>
      <trkpt lat="45.98217" lon="0.602">
        <ele>217.88</ele>
        <time>2021-08-04T21:11:55Z</time>
      </trkpt>
      <trkpt lat="45.97851" lon="0.59842">
        <ele>221.72</ele>
        <time>2021-08-04T21:12:15Z</time>
      </trkpt>
      <trkpt lat="45.97389" lon="0.59394">
        <ele>217.4</ele>
        <time>2021-08-04T21:12:38Z</time>
      </trkpt>
      <trkpt lat="45.96992" lon="0.59005">
        <ele>214.99</ele>
        <time>2021-08-04T21:13:00Z</time>
      </trkpt>
      <trkpt lat="45.9674" lon="0.58722">
        <ele>205.86</ele>
        <time>2021-08-04T21:13:14Z</time>
      </trkpt>
      <trkpt lat="45.96424" lon="0.58277">
        <ele>190.96</ele>
        <time>2021-08-04T21:13:33Z</time>
      </trkpt>
      <trkpt lat="45.96227" lon="0.58037">
        <ele>179.42</ele>
        <time>2021-08-04T21:13:44Z</time>
      </trkpt>
      <trkpt lat="45.96001" lon="0.57785">
        <ele>190</ele>
        <time>2021-08-04T21:13:57Z</time>
      </trkpt>
      <trkpt lat="45.95778" lon="0.57537">
        <ele>197.21</ele>
        <time>2021-08-04T21:14:10Z</time>
      </trkpt>
      <trkpt lat="45.95508" lon="0.57232">
        <ele>202.49</ele>
        <time>2021-08-04T21:14:25Z</time>
      </trkpt>
      <trkpt lat="45.95366" lon="0.57005">
        <ele>201.05</ele>
        <time>2021-08-04T21:14:35Z</time>
      </trkpt>
      <trkpt lat="45.95161" lon="0.56574">
        <ele>208.26</ele>
        <time>2021-08-04T21:14:51Z</time>
      </trkpt>
      <trkpt lat="45.94961" lon="0.56132">
        <ele>200.57</ele>
        <time>2021-08-04T21:15:06Z</time>
      </trkpt>
      <trkpt lat="45.94719" lon="0.55605">
        <ele>195.77</ele>
        <time>2021-08-04T21:15:25Z</time>
      </trkpt>
      <trkpt lat="45.9452" lon="0.55184">
        <ele>188.56</ele>
        <time>2021-08-04T21:15:41Z</time>
      </trkpt>
      <trkpt lat="45.94364" lon="0.54913">
        <ele>177.98</ele>
        <time>2021-08-04T21:15:52Z</time>
      </trkpt>
      <trkpt lat="45.94247" lon="0.54641">
        <ele>168.37</ele>
        <time>2021-08-04T21:16:02Z</time>
      </trkpt>
      <trkpt lat="45.94186" lon="0.54364">
        <ele>158.27</ele>
        <time>2021-08-04T21:16:11Z</time>
      </trkpt>
      <trkpt lat="45.94131" lon="0.54126">
        <ele>160.68</ele>
        <time>2021-08-04T21:16:19Z</time>
      </trkpt>
      <trkpt lat="45.94038" lon="0.53966">
        <ele>164.04</ele>
        <time>2021-08-04T21:16:26Z</time>
      </trkpt>
      <trkpt lat="45.93925" lon="0.53867">
        <ele>169.81</ele>
        <time>2021-08-04T21:16:33Z</time>
      </trkpt>
      <trkpt lat="45.93677" lon="0.53705">
        <ele>177.98</ele>
        <time>2021-08-04T21:16:49Z</time>
      </trkpt>
      <trkpt lat="45.93564" lon="0.53592">
        <ele>178.94</ele>
        <time>2021-08-04T21:16:56Z</time>
      </trkpt>
      <trkpt lat="45.93448" lon="0.53424">
        <ele>177.02</ele>
        <time>2021-08-04T21:17:05Z</time>
      </trkpt>
      <trkpt lat="45.93122" lon="0.52944">
        <ele>177.02</ele>
        <time>2021-08-04T21:17:26Z</time>
      </trkpt>
      <trkpt lat="45.92817" lon="0.52499">
        <ele>179.9</ele>
        <time>2021-08-04T21:17:45Z</time>
      </trkpt>
      <trkpt lat="45.92489" lon="0.52018">
        <ele>182.79</ele>
        <time>2021-08-04T21:18:05Z</time>
      </trkpt>
      <trkpt lat="45.92133" lon="0.51497">
        <ele>183.27</ele>
        <time>2021-08-04T21:18:29Z</time>
      </trkpt>
      <trkpt lat="45.91849" lon="0.5107">
        <ele>179.9</ele>
        <time>2021-08-04T21:18:47Z</time>
      </trkpt>
      <trkpt lat="45.91739" lon="0.50796">
        <ele>170.77</ele>
        <time>2021-08-04T21:18:56Z</time>
      </trkpt>
      <trkpt lat="45.91646" lon="0.50446">
        <ele>178.94</ele>
        <time>2021-08-04T21:19:09Z</time>
      </trkpt>
      <trkpt lat="45.915" lon="0.49884">
        <ele>189.04</ele>
        <time>2021-08-04T21:19:28Z</time>
      </trkpt>
      <trkpt lat="45.91405" lon="0.49619">
        <ele>203.46</ele>
        <time>2021-08-04T21:19:38Z</time>
      </trkpt>
      <trkpt lat="45.91289" lon="0.49419">
        <ele>211.15</ele>
        <time>2021-08-04T21:19:46Z</time>
      </trkpt>
      <trkpt lat="45.91099" lon="0.49217">
        <ele>214.03</ele>
        <time>2021-08-04T21:19:57Z</time>
      </trkpt>
      <trkpt lat="45.90856" lon="0.48959">
        <ele>209.7</ele>
        <time>2021-08-04T21:20:10Z</time>
      </trkpt>
      <trkpt lat="45.90708" lon="0.48737">
        <ele>213.07</ele>
        <time>2021-08-04T21:20:19Z</time>
      </trkpt>
      <trkpt lat="45.90526" lon="0.48528">
        <ele>206.34</ele>
        <time>2021-08-04T21:20:29Z</time>
      </trkpt>
      <trkpt lat="45.90143" lon="0.48089">
        <ele>178.94</ele>
        <time>2021-08-04T21:20:50Z</time>
      </trkpt>
      <trkpt lat="45.89958" lon="0.47911">
        <ele>168.85</ele>
        <time>2021-08-04T21:21:00Z</time>
      </trkpt>
      <trkpt lat="45.89762" lon="0.47819">
        <ele>161.64</ele>
        <time>2021-08-04T21:21:09Z</time>
      </trkpt>
      <trkpt lat="45.894" lon="0.47674">
        <ele>153.47</ele>
        <time>2021-08-04T21:21:25Z</time>
      </trkpt>
      <trkpt lat="45.89146" lon="0.47544">
        <ele>138.57</ele>
        <time>2021-08-04T21:21:38Z</time>
      </trkpt>
      <trkpt lat="45.89045" lon="0.47412">
        <ele>130.4</ele>
        <time>2021-08-04T21:21:44Z</time>
      </trkpt>
      <trkpt lat="45.88987" lon="0.47256">
        <ele>123.19</ele>
        <time>2021-08-04T21:21:50Z</time>
      </trkpt>
      <trkpt lat="45.88967" lon="0.47156">
        <ele>121.26</ele>
        <time>2021-08-04T21:21:55Z</time>
      </trkpt>
      <trkpt lat="45.88966" lon="0.47148">
        <ele>121.74</ele>
        <time>2021-08-04T21:21:56Z</time>
      </trkpt>
      <trkpt lat="45.88966" lon="0.47148">
        <ele>121.74</ele>
        <time>2021-08-04T21:21:57Z</time>
      </trkpt>
      <trkpt lat="45.88972" lon="0.47137">
        <ele>121.74</ele>
        <time>2021-08-04T21:21:58Z</time>
      </trkpt>
      <trkpt lat="45.88981" lon="0.47126">
        <ele>121.74</ele>
        <time>2021-08-04T21:21:59Z</time>
      </trkpt>
      <trkpt lat="45.88982" lon="0.47111">
        <ele>122.22</ele>
        <time>2021-08-04T21:22:00Z</time>
      </trkpt>
      <trkpt lat="45.88981" lon="0.47101">
        <ele>121.74</ele>
        <time>2021-08-04T21:22:01Z</time>
      </trkpt>
      <trkpt lat="45.88981" lon="0.47095">
        <ele>121.74</ele>
        <time>2021-08-04T21:22:02Z</time>
      </trkpt>
      <trkpt lat="45.88981" lon="0.47095">
        <ele>121.26</ele>
        <time>2021-08-04T21:22:03Z</time>
      </trkpt>
      <trkpt lat="45.88972" lon="0.47087">
        <ele>120.78</ele>
        <time>2021-08-04T21:22:04Z</time>
      </trkpt>
      <trkpt lat="45.88965" lon="0.47081">
        <ele>120.3</ele>
        <time>2021-08-04T21:22:05Z</time>
      </trkpt>
      <trkpt lat="45.88958" lon="0.47081">
        <ele>119.82</ele>
        <time>2021-08-04T21:22:06Z</time>
      </trkpt>
      <trkpt lat="45.88951" lon="0.47082">
        <ele>119.34</ele>
        <time>2021-08-04T21:22:07Z</time>
      </trkpt>
      <trkpt lat="45.88935" lon="0.4709">
        <ele>118.86</ele>
        <time>2021-08-04T21:22:08Z</time>
      </trkpt>
      <trkpt lat="45.88926" lon="0.47083">
        <ele>118.38</ele>
        <time>2021-08-04T21:22:09Z</time>
      </trkpt>
      <trkpt lat="45.88916" lon="0.47075">
        <ele>117.9</ele>
        <time>2021-08-04T21:22:10Z</time>
      </trkpt>
      <trkpt lat="45.88818" lon="0.47006">
        <ele>117.9</ele>
        <time>2021-08-04T21:22:17Z</time>
      </trkpt>
      <trkpt lat="45.88652" lon="0.46919">
        <ele>126.55</ele>
        <time>2021-08-04T21:22:26Z</time>
      </trkpt>
      <trkpt lat="45.88509" lon="0.46911">
        <ele>134.72</ele>
        <time>2021-08-04T21:22:33Z</time>
      </trkpt>
      <trkpt lat="45.88117" lon="0.46988">
        <ele>144.82</ele>
        <time>2021-08-04T21:22:52Z</time>
      </trkpt>
      <trkpt lat="45.87932" lon="0.46957">
        <ele>149.62</ele>
        <time>2021-08-04T21:22:59Z</time>
      </trkpt>
      <trkpt lat="45.87508" lon="0.4681">
        <ele>160.68</ele>
        <time>2021-08-04T21:23:18Z</time>
      </trkpt>
      <trkpt lat="45.87194" lon="0.46704">
        <ele>153.95</ele>
        <time>2021-08-04T21:23:30Z</time>
      </trkpt>
      <trkpt lat="45.86977" lon="0.46632">
        <ele>152.03</ele>
        <time>2021-08-04T21:23:38Z</time>
      </trkpt>
      <trkpt lat="45.86713" lon="0.46558">
        <ele>145.3</ele>
        <time>2021-08-04T21:23:52Z</time>
      </trkpt>
      <trkpt lat="45.86563" lon="0.4659">
        <ele>144.82</ele>
        <time>2021-08-04T21:23:59Z</time>
      </trkpt>
      <trkpt lat="45.86249" lon="0.46704">
        <ele>148.18</ele>
        <time>2021-08-04T21:24:14Z</time>
      </trkpt>
      <trkpt lat="45.86099" lon="0.46724">
        <ele>149.14</ele>
        <time>2021-08-04T21:24:21Z</time>
      </trkpt>
      <trkpt lat="45.85975" lon="0.46671">
        <ele>150.1</ele>
        <time>2021-08-04T21:24:27Z</time>
      </trkpt>
      <trkpt lat="45.85765" lon="0.46506">
        <ele>147.7</ele>
        <time>2021-08-04T21:24:38Z</time>
      </trkpt>
      <trkpt lat="45.85616" lon="0.46434">
        <ele>146.74</ele>
        <time>2021-08-04T21:24:45Z</time>
      </trkpt>
      <trkpt lat="45.85239" lon="0.46314">
        <ele>148.66</ele>
        <time>2021-08-04T21:25:02Z</time>
      </trkpt>
      <trkpt lat="45.8491" lon="0.46209">
        <ele>146.26</ele>
        <time>2021-08-04T21:25:18Z</time>
      </trkpt>
      <trkpt lat="45.84432" lon="0.46056">
        <ele>131.36</ele>
        <time>2021-08-04T21:25:41Z</time>
      </trkpt>
      <trkpt lat="45.84239" lon="0.4605">
        <ele>128.95</ele>
        <time>2021-08-04T21:25:50Z</time>
      </trkpt>
      <trkpt lat="45.84052" lon="0.46104">
        <ele>129.43</ele>
        <time>2021-08-04T21:25:58Z</time>
      </trkpt>
      <trkpt lat="45.83867" lon="0.46234">
        <ele>128.95</ele>
        <time>2021-08-04T21:26:06Z</time>
      </trkpt>
      <trkpt lat="45.83641" lon="0.46476">
        <ele>124.15</ele>
        <time>2021-08-04T21:26:17Z</time>
      </trkpt>
      <trkpt lat="45.83382" lon="0.4676">
        <ele>123.67</ele>
        <time>2021-08-04T21:26:31Z</time>
      </trkpt>
      <trkpt lat="45.83286" lon="0.46857">
        <ele>127.51</ele>
        <time>2021-08-04T21:26:37Z</time>
      </trkpt>
      <trkpt lat="45.83266" lon="0.46872">
        <ele>127.51</ele>
        <time>2021-08-04T21:26:39Z</time>
      </trkpt>
      <trkpt lat="45.83266" lon="0.46872">
        <ele>127.51</ele>
        <time>2021-08-04T21:26:40Z</time>
      </trkpt>
      <trkpt lat="45.83256" lon="0.46878">
        <ele>126.55</ele>
        <time>2021-08-04T21:26:41Z</time>
      </trkpt>
      <trkpt lat="45.83249" lon="0.46882">
        <ele>126.07</ele>
        <time>2021-08-04T21:26:42Z</time>
      </trkpt>
      <trkpt lat="45.83243" lon="0.46886">
        <ele>125.59</ele>
        <time>2021-08-04T21:26:43Z</time>
      </trkpt>
      <trkpt lat="45.83235" lon="0.46878">
        <ele>126.07</ele>
        <time>2021-08-04T21:26:44Z</time>
      </trkpt>
      <trkpt lat="45.83231" lon="0.46872">
        <ele>125.59</ele>
        <time>2021-08-04T21:26:45Z</time>
      </trkpt>
      <trkpt lat="45.8321" lon="0.46864">
        <ele>124.63</ele>
        <time>2021-08-04T21:26:48Z</time>
      </trkpt>
      <trkpt lat="45.832" lon="0.46859">
        <ele>124.15</ele>
        <time>2021-08-04T21:26:49Z</time>
      </trkpt>
      <trkpt lat="45.83197" lon="0.46848">
        <ele>125.11</ele>
        <time>2021-08-04T21:26:50Z</time>
      </trkpt>
      <trkpt lat="45.83144" lon="0.46694">
        <ele>126.55</ele>
        <time>2021-08-04T21:27:00Z</time>
      </trkpt>
      <trkpt lat="45.8311" lon="0.46624">
        <ele>125.11</ele>
        <time>2021-08-04T21:27:04Z</time>
      </trkpt>
      <trkpt lat="45.82995" lon="0.46477">
        <ele>126.07</ele>
        <time>2021-08-04T21:27:13Z</time>
      </trkpt>
      <trkpt lat="45.8279" lon="0.46247">
        <ele>124.15</ele>
        <time>2021-08-04T21:27:26Z</time>
      </trkpt>
      <trkpt lat="45.82611" lon="0.46038">
        <ele>123.67</ele>
        <time>2021-08-04T21:27:36Z</time>
      </trkpt>
      <trkpt lat="45.82373" lon="0.45796">
        <ele>121.26</ele>
        <time>2021-08-04T21:27:46Z</time>
      </trkpt>
      <trkpt lat="45.82198" lon="0.45697">
        <ele>118.86</ele>
        <time>2021-08-04T21:27:54Z</time>
      </trkpt>
      <trkpt lat="45.8186" lon="0.45582">
        <ele>118.86</ele>
        <time>2021-08-04T21:28:07Z</time>
      </trkpt>
      <trkpt lat="45.81621" lon="0.45418">
        <ele>118.38</ele>
        <time>2021-08-04T21:28:16Z</time>
      </trkpt>
      <trkpt lat="45.81407" lon="0.45202">
        <ele>119.34</ele>
        <time>2021-08-04T21:28:27Z</time>
      </trkpt>
      <trkpt lat="45.81031" lon="0.44806">
        <ele>128.95</ele>
        <time>2021-08-04T21:28:45Z</time>
      </trkpt>
      <trkpt lat="45.80676" lon="0.4443">
        <ele>121.74</ele>
        <time>2021-08-04T21:29:01Z</time>
      </trkpt>
      <trkpt lat="45.80282" lon="0.4401">
        <ele>119.34</ele>
        <time>2021-08-04T21:29:19Z</time>
      </trkpt>
      <trkpt lat="45.79859" lon="0.43561">
        <ele>126.07</ele>
        <time>2021-08-04T21:29:39Z</time>
      </trkpt>
      <trkpt lat="45.79511" lon="0.4317">
        <ele>135.2</ele>
        <time>2021-08-04T21:29:56Z</time>
      </trkpt>
      <trkpt lat="45.79362" lon="0.4291">
        <ele>134.24</ele>
        <time>2021-08-04T21:30:05Z</time>
      </trkpt>
      <trkpt lat="45.7925" lon="0.42603">
        <ele>125.59</ele>
        <time>2021-08-04T21:30:14Z</time>
      </trkpt>
      <trkpt lat="45.79069" lon="0.41996">
        <ele>117.42</ele>
        <time>2021-08-04T21:30:30Z</time>
      </trkpt>
      <trkpt lat="45.78948" lon="0.41742">
        <ele>114.05</ele>
        <time>2021-08-04T21:30:39Z</time>
      </trkpt>
      <trkpt lat="45.78774" lon="0.415">
        <ele>110.21</ele>
        <time>2021-08-04T21:30:48Z</time>
      </trkpt>
      <trkpt lat="45.78496" lon="0.4114">
        <ele>103</ele>
        <time>2021-08-04T21:31:02Z</time>
      </trkpt>
      <trkpt lat="45.78279" lon="0.40862">
        <ele>101.56</ele>
        <time>2021-08-04T21:31:13Z</time>
      </trkpt>
      <trkpt lat="45.78075" lon="0.40693">
        <ele>97.71</ele>
        <time>2021-08-04T21:31:22Z</time>
      </trkpt>
      <trkpt lat="45.77555" lon="0.40353">
        <ele>106.84</ele>
        <time>2021-08-04T21:31:44Z</time>
      </trkpt>
      <trkpt lat="45.76951" lon="0.39962">
        <ele>129.92</ele>
        <time>2021-08-04T21:32:09Z</time>
      </trkpt>
      <trkpt lat="45.7654" lon="0.39694">
        <ele>132.8</ele>
        <time>2021-08-04T21:32:26Z</time>
      </trkpt>
      <trkpt lat="45.76127" lon="0.39418">
        <ele>130.4</ele>
        <time>2021-08-04T21:32:43Z</time>
      </trkpt>
      <trkpt lat="45.75803" lon="0.39138">
        <ele>127.51</ele>
        <time>2021-08-04T21:32:57Z</time>
      </trkpt>
      <trkpt lat="45.75626" lon="0.38908">
        <ele>120.3</ele>
        <time>2021-08-04T21:33:06Z</time>
      </trkpt>
      <trkpt lat="45.75484" lon="0.38621">
        <ele>108.29</ele>
        <time>2021-08-04T21:33:15Z</time>
      </trkpt>
      <trkpt lat="45.75387" lon="0.38305">
        <ele>94.83</ele>
        <time>2021-08-04T21:33:24Z</time>
      </trkpt>
      <trkpt lat="45.75301" lon="0.37825">
        <ele>82.33</ele>
        <time>2021-08-04T21:33:37Z</time>
      </trkpt>
      <trkpt lat="45.75216" lon="0.37369">
        <ele>84.25</ele>
        <time>2021-08-04T21:33:50Z</time>
      </trkpt>
      <trkpt lat="45.75111" lon="0.37091">
        <ele>87.62</ele>
        <time>2021-08-04T21:33:59Z</time>
      </trkpt>
      <trkpt lat="45.74973" lon="0.36871">
        <ele>87.14</ele>
        <time>2021-08-04T21:34:07Z</time>
      </trkpt>
      <trkpt lat="45.748" lon="0.36696">
        <ele>88.58</ele>
        <time>2021-08-04T21:34:15Z</time>
      </trkpt>
      <trkpt lat="45.74535" lon="0.36473">
        <ele>95.31</ele>
        <time>2021-08-04T21:34:27Z</time>
      </trkpt>
      <trkpt lat="45.74391" lon="0.36268">
        <ele>102.04</ele>
        <time>2021-08-04T21:34:35Z</time>
      </trkpt>
      <trkpt lat="45.74284" lon="0.36027">
        <ele>106.84</ele>
        <time>2021-08-04T21:34:43Z</time>
      </trkpt>
      <trkpt lat="45.74195" lon="0.35682">
        <ele>106.36</ele>
        <time>2021-08-04T21:34:53Z</time>
      </trkpt>
      <trkpt lat="45.74053" lon="0.35096">
        <ele>103.48</ele>
        <time>2021-08-04T21:35:10Z</time>
      </trkpt>
      <trkpt lat="45.73946" lon="0.34722">
        <ele>102.52</ele>
        <time>2021-08-04T21:35:21Z</time>
      </trkpt>
      <trkpt lat="45.73824" lon="0.34481">
        <ele>96.75</ele>
        <time>2021-08-04T21:35:29Z</time>
      </trkpt>
      <trkpt lat="45.73537" lon="0.34029">
        <ele>84.25</ele>
        <time>2021-08-04T21:35:45Z</time>
      </trkpt>
      <trkpt lat="45.73349" lon="0.33774">
        <ele>87.14</ele>
        <time>2021-08-04T21:35:55Z</time>
      </trkpt>
      <trkpt lat="45.73101" lon="0.33433">
        <ele>95.79</ele>
        <time>2021-08-04T21:36:09Z</time>
      </trkpt>
      <trkpt lat="45.72813" lon="0.32962">
        <ele>111.17</ele>
        <time>2021-08-04T21:36:26Z</time>
      </trkpt>
      <trkpt lat="45.72523" lon="0.32474">
        <ele>115.01</ele>
        <time>2021-08-04T21:36:45Z</time>
      </trkpt>
      <trkpt lat="45.72355" lon="0.32077">
        <ele>123.19</ele>
        <time>2021-08-04T21:36:58Z</time>
      </trkpt>
      <trkpt lat="45.7207" lon="0.31392">
        <ele>121.26</ele>
        <time>2021-08-04T21:37:20Z</time>
      </trkpt>
      <trkpt lat="45.71822" lon="0.30796">
        <ele>120.3</ele>
        <time>2021-08-04T21:37:38Z</time>
      </trkpt>
      <trkpt lat="45.71613" lon="0.303">
        <ele>126.55</ele>
        <time>2021-08-04T21:37:54Z</time>
      </trkpt>
      <trkpt lat="45.71387" lon="0.29758">
        <ele>131.36</ele>
        <time>2021-08-04T21:38:12Z</time>
      </trkpt>
      <trkpt lat="45.71133" lon="0.29147">
        <ele>131.84</ele>
        <time>2021-08-04T21:38:31Z</time>
      </trkpt>
      <trkpt lat="45.71016" lon="0.28782">
        <ele>141.93</ele>
        <time>2021-08-04T21:38:42Z</time>
      </trkpt>
      <trkpt lat="45.70938" lon="0.28401">
        <ele>149.14</ele>
        <time>2021-08-04T21:38:53Z</time>
      </trkpt>
      <trkpt lat="45.70897" lon="0.28">
        <ele>145.3</ele>
        <time>2021-08-04T21:39:04Z</time>
      </trkpt>
      <trkpt lat="45.70846" lon="0.27657">
        <ele>139.05</ele>
        <time>2021-08-04T21:39:13Z</time>
      </trkpt>
      <trkpt lat="45.70747" lon="0.2734">
        <ele>139.53</ele>
        <time>2021-08-04T21:39:22Z</time>
      </trkpt>
      <trkpt lat="45.70508" lon="0.26761">
        <ele>141.45</ele>
        <time>2021-08-04T21:39:39Z</time>
      </trkpt>
      <trkpt lat="45.70328" lon="0.26455">
        <ele>142.41</ele>
        <time>2021-08-04T21:39:51Z</time>
      </trkpt>
      <trkpt lat="45.7014" lon="0.26108">
        <ele>149.14</ele>
        <time>2021-08-04T21:40:03Z</time>
      </trkpt>
      <trkpt lat="45.7002" lon="0.2575">
        <ele>151.06</ele>
        <time>2021-08-04T21:40:14Z</time>
      </trkpt>
      <trkpt lat="45.69837" lon="0.25128">
        <ele>145.3</ele>
        <time>2021-08-04T21:40:32Z</time>
      </trkpt>
      <trkpt lat="45.696" lon="0.24484">
        <ele>135.68</ele>
        <time>2021-08-04T21:40:51Z</time>
      </trkpt>
      <trkpt lat="45.69354" lon="0.2382">
        <ele>115.01</ele>
        <time>2021-08-04T21:41:10Z</time>
      </trkpt>
      <trkpt lat="45.69104" lon="0.23115">
        <ele>91.46</ele>
        <time>2021-08-04T21:41:30Z</time>
      </trkpt>
      <trkpt lat="45.68954" lon="0.22569">
        <ele>80.41</ele>
        <time>2021-08-04T21:41:45Z</time>
      </trkpt>
      <trkpt lat="45.68806" lon="0.21877">
        <ele>87.62</ele>
        <time>2021-08-04T21:42:04Z</time>
      </trkpt>
      <trkpt lat="45.68647" lon="0.21059">
        <ele>90.98</ele>
        <time>2021-08-04T21:42:25Z</time>
      </trkpt>
      <trkpt lat="45.68618" lon="0.20706">
        <ele>87.14</ele>
        <time>2021-08-04T21:42:35Z</time>
      </trkpt>
      <trkpt lat="45.68631" lon="0.20314">
        <ele>84.73</ele>
        <time>2021-08-04T21:42:45Z</time>
      </trkpt>
      <trkpt lat="45.68706" lon="0.19785">
        <ele>74.16</ele>
        <time>2021-08-04T21:42:59Z</time>
      </trkpt>
      <trkpt lat="45.68818" lon="0.19511">
        <ele>64.07</ele>
        <time>2021-08-04T21:43:06Z</time>
      </trkpt>
      <trkpt lat="45.68935" lon="0.19332">
        <ele>61.18</ele>
        <time>2021-08-04T21:43:13Z</time>
      </trkpt>
      <trkpt lat="45.69095" lon="0.19182">
        <ele>70.79</ele>
        <time>2021-08-04T21:43:20Z</time>
      </trkpt>
      <trkpt lat="45.69357" lon="0.18985">
        <ele>83.77</ele>
        <time>2021-08-04T21:43:32Z</time>
      </trkpt>
      <trkpt lat="45.69538" lon="0.1882">
        <ele>85.69</ele>
        <time>2021-08-04T21:43:41Z</time>
      </trkpt>
      <trkpt lat="45.69583" lon="0.18747">
        <ele>85.21</ele>
        <time>2021-08-04T21:43:44Z</time>
      </trkpt>
      <trkpt lat="45.69596" lon="0.18717">
        <ele>85.69</ele>
        <time>2021-08-04T21:43:45Z</time>
      </trkpt>
      <trkpt lat="45.69649" lon="0.18515">
        <ele>82.81</ele>
        <time>2021-08-04T21:43:52Z</time>
      </trkpt>
      <trkpt lat="45.69643" lon="0.18291">
        <ele>78.48</ele>
        <time>2021-08-04T21:43:58Z</time>
      </trkpt>
      <trkpt lat="45.69581" lon="0.18072">
        <ele>74.64</ele>
        <time>2021-08-04T21:44:05Z</time>
      </trkpt>
      <trkpt lat="45.69553" lon="0.17916">
        <ele>71.27</ele>
        <time>2021-08-04T21:44:11Z</time>
      </trkpt>
      <trkpt lat="45.69539" lon="0.17489">
        <ele>61.66</ele>
        <time>2021-08-04T21:44:24Z</time>
      </trkpt>
      <trkpt lat="45.69532" lon="0.17458">
        <ele>61.18</ele>
        <time>2021-08-04T21:44:25Z</time>
      </trkpt>
      <trkpt lat="45.69514" lon="0.17398">
        <ele>60.7</ele>
        <time>2021-08-04T21:44:26Z</time>
      </trkpt>
      <trkpt lat="45.69424" lon="0.17183">
        <ele>56.37</ele>
        <time>2021-08-04T21:44:35Z</time>
      </trkpt>
      <trkpt lat="45.69379" lon="0.16935">
        <ele>53.49</ele>
        <time>2021-08-04T21:44:42Z</time>
      </trkpt>
      <trkpt lat="45.69329" lon="0.1664">
        <ele>54.93</ele>
        <time>2021-08-04T21:44:52Z</time>
      </trkpt>
      <trkpt lat="45.69254" lon="0.16326">
        <ele>58.78</ele>
        <time>2021-08-04T21:45:02Z</time>
      </trkpt>
      <trkpt lat="45.69148" lon="0.16123">
        <ele>61.66</ele>
        <time>2021-08-04T21:45:10Z</time>
      </trkpt>
      <trkpt lat="45.69003" lon="0.15966">
        <ele>63.1</ele>
        <time>2021-08-04T21:45:18Z</time>
      </trkpt>
      <trkpt lat="45.68664" lon="0.15696">
        <ele>49.65</ele>
        <time>2021-08-04T21:45:34Z</time>
      </trkpt>
      <trkpt lat="45.68403" lon="0.1546">
        <ele>40.03</ele>
        <time>2021-08-04T21:45:46Z</time>
      </trkpt>
      <trkpt lat="45.68147" lon="0.15194">
        <ele>39.55</ele>
        <time>2021-08-04T21:45:58Z</time>
      </trkpt>
      <trkpt lat="45.67921" lon="0.14922">
        <ele>43.4</ele>
        <time>2021-08-04T21:46:10Z</time>
      </trkpt>
      <trkpt lat="45.67722" lon="0.14657">
        <ele>47.24</ele>
        <time>2021-08-04T21:46:23Z</time>
      </trkpt>
      <trkpt lat="45.67499" lon="0.14336">
        <ele>49.16</ele>
        <time>2021-08-04T21:46:38Z</time>
      </trkpt>
      <trkpt lat="45.67456" lon="0.14262">
        <ele>49.16</ele>
        <time>2021-08-04T21:46:43Z</time>
      </trkpt>
      <trkpt lat="45.67448" lon="0.1424">
        <ele>49.65</ele>
        <time>2021-08-04T21:46:44Z</time>
      </trkpt>
      <trkpt lat="45.67442" lon="0.14218">
        <ele>51.09</ele>
        <time>2021-08-04T21:46:45Z</time>
      </trkpt>
      <trkpt lat="45.67438" lon="0.14197">
        <ele>51.57</ele>
        <time>2021-08-04T21:46:46Z</time>
      </trkpt>
      <trkpt lat="45.67436" lon="0.14175">
        <ele>53.01</ele>
        <time>2021-08-04T21:46:47Z</time>
      </trkpt>
      <trkpt lat="45.67438" lon="0.14135">
        <ele>53.97</ele>
        <time>2021-08-04T21:46:48Z</time>
      </trkpt>
      <trkpt lat="45.67438" lon="0.14135">
        <ele>54.45</ele>
        <time>2021-08-04T21:46:49Z</time>
      </trkpt>
      <trkpt lat="45.6744" lon="0.14115">
        <ele>54.93</ele>
        <time>2021-08-04T21:46:50Z</time>
      </trkpt>
      <trkpt lat="45.67441" lon="0.14096">
        <ele>55.41</ele>
        <time>2021-08-04T21:46:51Z</time>
      </trkpt>
      <trkpt lat="45.67446" lon="0.1408">
        <ele>56.86</ele>
        <time>2021-08-04T21:46:52Z</time>
      </trkpt>
      <trkpt lat="45.67452" lon="0.14063">
        <ele>56.86</ele>
        <time>2021-08-04T21:46:53Z</time>
      </trkpt>
      <trkpt lat="45.67458" lon="0.14046">
        <ele>56.86</ele>
        <time>2021-08-04T21:46:54Z</time>
      </trkpt>
      <trkpt lat="45.67524" lon="0.13886">
        <ele>56.86</ele>
        <time>2021-08-04T21:47:02Z</time>
      </trkpt>
      <trkpt lat="45.67646" lon="0.13691">
        <ele>59.26</ele>
        <time>2021-08-04T21:47:12Z</time>
      </trkpt>
      <trkpt lat="45.6782" lon="0.13449">
        <ele>62.62</ele>
        <time>2021-08-04T21:47:25Z</time>
      </trkpt>
      <trkpt lat="45.67952" lon="0.13318">
        <ele>70.31</ele>
        <time>2021-08-04T21:47:35Z</time>
      </trkpt>
      <trkpt lat="45.67962" lon="0.13311">
        <ele>71.27</ele>
        <time>2021-08-04T21:47:36Z</time>
      </trkpt>
      <trkpt lat="45.6797" lon="0.13305">
        <ele>71.27</ele>
        <time>2021-08-04T21:47:37Z</time>
      </trkpt>
      <trkpt lat="45.67977" lon="0.133">
        <ele>71.27</ele>
        <time>2021-08-04T21:47:38Z</time>
      </trkpt>
      <trkpt lat="45.67982" lon="0.13303">
        <ele>70.79</ele>
        <time>2021-08-04T21:47:39Z</time>
      </trkpt>
      <trkpt lat="45.67989" lon="0.13308">
        <ele>69.83</ele>
        <time>2021-08-04T21:47:40Z</time>
      </trkpt>
      <trkpt lat="45.68001" lon="0.13315">
        <ele>68.87</ele>
        <time>2021-08-04T21:47:41Z</time>
      </trkpt>
      <trkpt lat="45.68002" lon="0.13327">
        <ele>67.91</ele>
        <time>2021-08-04T21:47:42Z</time>
      </trkpt>
      <trkpt lat="45.68002" lon="0.13327">
        <ele>66.47</ele>
        <time>2021-08-04T21:47:43Z</time>
      </trkpt>
      <trkpt lat="45.68003" lon="0.13341">
        <ele>65.51</ele>
        <time>2021-08-04T21:47:44Z</time>
      </trkpt>
      <trkpt lat="45.68005" lon="0.13358">
        <ele>63.58</ele>
        <time>2021-08-04T21:47:45Z</time>
      </trkpt>
      <trkpt lat="45.68003" lon="0.13375">
        <ele>63.58</ele>
        <time>2021-08-04T21:47:46Z</time>
      </trkpt>
      <trkpt lat="45.68" lon="0.1339">
        <ele>62.62</ele>
        <time>2021-08-04T21:47:47Z</time>
      </trkpt>
      <trkpt lat="45.67983" lon="0.13418">
        <ele>62.14</ele>
        <time>2021-08-04T21:47:48Z</time>
      </trkpt>
      <trkpt lat="45.6797" lon="0.13429">
        <ele>61.18</ele>
        <time>2021-08-04T21:47:49Z</time>
      </trkpt>
      <trkpt lat="45.6797" lon="0.13429">
        <ele>62.14</ele>
        <time>2021-08-04T21:47:50Z</time>
      </trkpt>
      <trkpt lat="45.67957" lon="0.13437">
        <ele>62.62</ele>
        <time>2021-08-04T21:47:51Z</time>
      </trkpt>
      <trkpt lat="45.67846" lon="0.13492">
        <ele>60.22</ele>
        <time>2021-08-04T21:47:59Z</time>
      </trkpt>
      <trkpt lat="45.67723" lon="0.1365">
        <ele>58.3</ele>
        <time>2021-08-04T21:48:08Z</time>
      </trkpt>
      <trkpt lat="45.67691" lon="0.13726">
        <ele>56.86</ele>
        <time>2021-08-04T21:48:14Z</time>
      </trkpt>
      <trkpt lat="45.67679" lon="0.13749">
        <ele>57.34</ele>
        <time>2021-08-04T21:48:15Z</time>
      </trkpt>
      <trkpt lat="45.67679" lon="0.13749">
        <ele>58.3</ele>
        <time>2021-08-04T21:48:16Z</time>
      </trkpt>
      <trkpt lat="45.67673" lon="0.13755">
        <ele>57.82</ele>
        <time>2021-08-04T21:48:17Z</time>
      </trkpt>
      <trkpt lat="45.67666" lon="0.1376">
        <ele>58.3</ele>
        <time>2021-08-04T21:48:18Z</time>
      </trkpt>
      <trkpt lat="45.67655" lon="0.13781">
        <ele>58.3</ele>
        <time>2021-08-04T21:48:19Z</time>
      </trkpt>
      <trkpt lat="45.67655" lon="0.13781">
        <ele>57.82</ele>
        <time>2021-08-04T21:48:20Z</time>
      </trkpt>
      <trkpt lat="45.67655" lon="0.13792">
        <ele>57.34</ele>
        <time>2021-08-04T21:48:21Z</time>
      </trkpt>
      <trkpt lat="45.67657" lon="0.13803">
        <ele>57.34</ele>
        <time>2021-08-04T21:48:22Z</time>
      </trkpt>
      <trkpt lat="45.67668" lon="0.13824">
        <ele>56.86</ele>
        <time>2021-08-04T21:48:23Z</time>
      </trkpt>
      <trkpt lat="45.67668" lon="0.13824">
        <ele>55.89</ele>
        <time>2021-08-04T21:48:24Z</time>
      </trkpt>
      <trkpt lat="45.6767" lon="0.13837">
        <ele>55.89</ele>
        <time>2021-08-04T21:48:25Z</time>
      </trkpt>
      <trkpt lat="45.67671" lon="0.13851">
        <ele>56.37</ele>
        <time>2021-08-04T21:48:26Z</time>
      </trkpt>
      <trkpt lat="45.67671" lon="0.13865">
        <ele>55.89</ele>
        <time>2021-08-04T21:48:27Z</time>
      </trkpt>
      <trkpt lat="45.67671" lon="0.13881">
        <ele>55.41</ele>
        <time>2021-08-04T21:48:28Z</time>
      </trkpt>
      <trkpt lat="45.67669" lon="0.13917">
        <ele>54.45</ele>
        <time>2021-08-04T21:48:30Z</time>
      </trkpt>
      <trkpt lat="45.67668" lon="0.13935">
        <ele>53.49</ele>
        <time>2021-08-04T21:48:31Z</time>
      </trkpt>
      <trkpt lat="45.67668" lon="0.13954">
        <ele>53.01</ele>
        <time>2021-08-04T21:48:32Z</time>
      </trkpt>
      <trkpt lat="45.67672" lon="0.13974">
        <ele>52.53</ele>
        <time>2021-08-04T21:48:33Z</time>
      </trkpt>
      <trkpt lat="45.67675" lon="0.13994">
        <ele>52.05</ele>
        <time>2021-08-04T21:48:34Z</time>
      </trkpt>
      <trkpt lat="45.67748" lon="0.14261">
        <ele>35.23</ele>
        <time>2021-08-04T21:48:46Z</time>
      </trkpt>
      <trkpt lat="45.6777" lon="0.14357">
        <ele>30.9</ele>
        <time>2021-08-04T21:48:52Z</time>
      </trkpt>
      <trkpt lat="45.67771" lon="0.14369">
        <ele>30.9</ele>
        <time>2021-08-04T21:48:53Z</time>
      </trkpt>
      <trkpt lat="45.67771" lon="0.1438">
        <ele>31.38</ele>
        <time>2021-08-04T21:48:54Z</time>
      </trkpt>
      <trkpt lat="45.67772" lon="0.14391">
        <ele>31.86</ele>
        <time>2021-08-04T21:48:55Z</time>
      </trkpt>
      <trkpt lat="45.67771" lon="0.14411">
        <ele>31.38</ele>
        <time>2021-08-04T21:48:57Z</time>
      </trkpt>
      <trkpt lat="45.6777" lon="0.14422">
        <ele>30.9</ele>
        <time>2021-08-04T21:48:58Z</time>
      </trkpt>
      <trkpt lat="45.67774" lon="0.14434">
        <ele>29.94</ele>
        <time>2021-08-04T21:48:59Z</time>
      </trkpt>
      <trkpt lat="45.67778" lon="0.14441">
        <ele>29.46</ele>
        <time>2021-08-04T21:49:00Z</time>
      </trkpt>
      <trkpt lat="45.67778" lon="0.14441">
        <ele>28.5</ele>
        <time>2021-08-04T21:49:01Z</time>
      </trkpt>
      <trkpt lat="45.67796" lon="0.14463">
        <ele>27.53</ele>
        <time>2021-08-04T21:49:02Z</time>
      </trkpt>
      <trkpt lat="45.67799" lon="0.14494">
        <ele>28.02</ele>
        <time>2021-08-04T21:49:03Z</time>
      </trkpt>
      <trkpt lat="45.678" lon="0.14512">
        <ele>29.46</ele>
        <time>2021-08-04T21:49:04Z</time>
      </trkpt>
      <trkpt lat="45.67813" lon="0.14709">
        <ele>30.42</ele>
        <time>2021-08-04T21:49:14Z</time>
      </trkpt>
      <trkpt lat="45.6782" lon="0.14876">
        <ele>31.38</ele>
        <time>2021-08-04T21:49:22Z</time>
      </trkpt>
      <trkpt lat="45.67821" lon="0.14888">
        <ele>31.38</ele>
        <time>2021-08-04T21:49:23Z</time>
      </trkpt>
      <trkpt lat="45.67821" lon="0.14898">
        <ele>30.9</ele>
        <time>2021-08-04T21:49:24Z</time>
      </trkpt>
      <trkpt lat="45.6781" lon="0.14907">
        <ele>30.42</ele>
        <time>2021-08-04T21:49:25Z</time>
      </trkpt>
      <trkpt lat="45.67809" lon="0.1493">
        <ele>29.94</ele>
        <time>2021-08-04T21:49:26Z</time>
      </trkpt>
      <trkpt lat="45.67812" lon="0.1494">
        <ele>29.94</ele>
        <time>2021-08-04T21:49:27Z</time>
      </trkpt>
      <trkpt lat="45.67812" lon="0.1494">
        <ele>29.46</ele>
        <time>2021-08-04T21:49:28Z</time>
      </trkpt>
      <trkpt lat="45.67813" lon="0.14941">
        <ele>29.46</ele>
        <time>2021-08-04T21:49:29Z</time>
      </trkpt>
      <trkpt lat="45.67826" lon="0.14962">
        <ele>29.46</ele>
        <time>2021-08-04T21:49:30Z</time>
      </trkpt>
      <trkpt lat="45.67827" lon="0.14975">
        <ele>29.46</ele>
        <time>2021-08-04T21:49:31Z</time>
      </trkpt>
      <trkpt lat="45.67836" lon="0.15135">
        <ele>29.94</ele>
        <time>2021-08-04T21:49:39Z</time>
      </trkpt>
      <trkpt lat="45.67852" lon="0.15449">
        <ele>34.26</ele>
        <time>2021-08-04T21:49:53Z</time>
      </trkpt>
      <trkpt lat="45.67857" lon="0.15533">
        <ele>32.34</ele>
        <time>2021-08-04T21:50:00Z</time>
      </trkpt>
      <trkpt lat="45.67864" lon="0.15649">
        <ele>38.11</ele>
        <time>2021-08-04T21:50:11Z</time>
      </trkpt>
      <trkpt lat="45.67866" lon="0.15688">
        <ele>39.07</ele>
        <time>2021-08-04T21:50:15Z</time>
      </trkpt>
      <trkpt lat="45.67865" lon="0.15702">
        <ele>38.59</ele>
        <time>2021-08-04T21:50:16Z</time>
      </trkpt>
      <trkpt lat="45.67865" lon="0.15702">
        <ele>38.59</ele>
        <time>2021-08-04T21:50:17Z</time>
      </trkpt>
      <trkpt lat="45.67863" lon="0.15708">
        <ele>38.11</ele>
        <time>2021-08-04T21:50:18Z</time>
      </trkpt>
      <trkpt lat="45.67856" lon="0.15712">
        <ele>37.63</ele>
        <time>2021-08-04T21:50:19Z</time>
      </trkpt>
      <trkpt lat="45.6785" lon="0.15714">
        <ele>37.63</ele>
        <time>2021-08-04T21:50:20Z</time>
      </trkpt>
      <trkpt lat="45.67843" lon="0.15716">
        <ele>36.67</ele>
        <time>2021-08-04T21:50:21Z</time>
      </trkpt>
      <trkpt lat="45.67735" lon="0.15754">
        <ele>31.86</ele>
        <time>2021-08-04T21:50:32Z</time>
      </trkpt>
      <trkpt lat="45.67649" lon="0.15783">
        <ele>32.34</ele>
        <time>2021-08-04T21:50:42Z</time>
      </trkpt>
      <trkpt lat="45.67574" lon="0.15808">
        <ele>30.42</ele>
        <time>2021-08-04T21:50:53Z</time>
      </trkpt>
      <trkpt lat="45.67458" lon="0.15844">
        <ele>29.94</ele>
        <time>2021-08-04T21:51:07Z</time>
      </trkpt>
      <trkpt lat="45.67346" lon="0.15882">
        <ele>28.98</ele>
        <time>2021-08-04T21:51:21Z</time>
      </trkpt>
      <trkpt lat="45.67316" lon="0.15891">
        <ele>28.98</ele>
        <time>2021-08-04T21:51:28Z</time>
      </trkpt>
      <trkpt lat="45.67299" lon="0.15897">
        <ele>29.46</ele>
        <time>2021-08-04T21:51:37Z</time>
      </trkpt>
      <trkpt lat="45.67232" lon="0.1592">
        <ele>27.05</ele>
        <time>2021-08-04T21:51:48Z</time>
      </trkpt>
      <trkpt lat="45.67186" lon="0.15935">
        <ele>28.5</ele>
        <time>2021-08-04T21:51:56Z</time>
      </trkpt>
      <trkpt lat="45.67182" lon="0.15942">
        <ele>28.98</ele>
        <time>2021-08-04T21:51:58Z</time>
      </trkpt>
      <trkpt lat="45.67182" lon="0.15947">
        <ele>28.98</ele>
        <time>2021-08-04T21:51:59Z</time>
      </trkpt>
      <trkpt lat="45.67182" lon="0.15953">
        <ele>28.98</ele>
        <time>2021-08-04T21:52:00Z</time>
      </trkpt>
      <trkpt lat="45.67192" lon="0.16047">
        <ele>31.38</ele>
        <time>2021-08-04T21:52:10Z</time>
      </trkpt>
      <trkpt lat="45.67198" lon="0.16085">
        <ele>32.82</ele>
        <time>2021-08-04T21:52:21Z</time>
      </trkpt>
      <trkpt lat="45.67214" lon="0.16171">
        <ele>33.78</ele>
        <time>2021-08-04T21:52:30Z</time>
      </trkpt>
      <trkpt lat="45.67235" lon="0.16231">
        <ele>31.38</ele>
        <time>2021-08-04T21:52:39Z</time>
      </trkpt>
      <trkpt lat="45.67283" lon="0.16349">
        <ele>29.46</ele>
        <time>2021-08-04T21:52:49Z</time>
      </trkpt>
      <trkpt lat="45.67286" lon="0.16358">
        <ele>28.98</ele>
        <time>2021-08-04T21:52:51Z</time>
      </trkpt>
      <trkpt lat="45.67286" lon="0.16358">
        <ele>28.98</ele>
        <time>2021-08-04T21:52:52Z</time>
      </trkpt>
      <trkpt lat="45.67291" lon="0.16358">
        <ele>28.02</ele>
        <time>2021-08-04T21:52:53Z</time>
      </trkpt>
      <trkpt lat="45.67294" lon="0.16358">
        <ele>27.05</ele>
        <time>2021-08-04T21:52:54Z</time>
      </trkpt>
      <trkpt lat="45.67297" lon="0.16357">
        <ele>27.05</ele>
        <time>2021-08-04T21:52:55Z</time>
      </trkpt>
      <trkpt lat="45.67301" lon="0.16356">
        <ele>27.53</ele>
        <time>2021-08-04T21:52:56Z</time>
      </trkpt>
      <trkpt lat="45.67371" lon="0.16339">
        <ele>32.34</ele>
        <time>2021-08-04T21:53:05Z</time>
      </trkpt>
      <trkpt lat="45.67455" lon="0.16327">
        <ele>35.23</ele>
        <time>2021-08-04T21:53:16Z</time>
      </trkpt>
      <trkpt lat="45.67459" lon="0.16326">
        <ele>36.19</ele>
        <time>2021-08-04T21:53:24Z</time>
      </trkpt>
      <trkpt lat="45.67462" lon="0.16325">
        <ele>36.19</ele>
        <time>2021-08-04T21:53:25Z</time>
      </trkpt>
      <trkpt lat="45.67464" lon="0.16325">
        <ele>36.19</ele>
        <time>2021-08-04T21:53:26Z</time>
      </trkpt>
      <trkpt lat="45.67464" lon="0.1632">
        <ele>35.71</ele>
        <time>2021-08-04T21:53:27Z</time>
      </trkpt>
      <trkpt lat="45.67463" lon="0.16317">
        <ele>35.71</ele>
        <time>2021-08-04T21:53:28Z</time>
      </trkpt>
      <trkpt lat="45.67461" lon="0.16312">
        <ele>35.23</ele>
        <time>2021-08-04T21:53:29Z</time>
      </trkpt>
      <trkpt lat="45.67447" lon="0.16268">
        <ele>34.26</ele>
        <time>2021-08-04T21:53:40Z</time>
      </trkpt>
      <trkpt lat="45.67442" lon="0.16251">
        <ele>33.78</ele>
        <time>2021-08-04T21:53:52Z</time>
      </trkpt>
      <trkpt lat="45.67419" lon="0.16182">
        <ele>33.3</ele>
        <time>2021-08-04T21:54:01Z</time>
      </trkpt>
      <trkpt lat="45.67393" lon="0.16118">
        <ele>33.3</ele>
        <time>2021-08-04T21:54:11Z</time>
      </trkpt>
      <trkpt lat="45.67382" lon="0.16076">
        <ele>33.3</ele>
        <time>2021-08-04T21:54:21Z</time>
      </trkpt>
      <trkpt lat="45.67381" lon="0.16071">
        <ele>33.3</ele>
        <time>2021-08-04T21:54:23Z</time>
      </trkpt>
      <trkpt lat="45.67381" lon="0.1607">
        <ele>33.3</ele>
        <time>2021-08-04T21:54:24Z</time>
      </trkpt>
    </trkseg>
  </trk>
</gpx>